<?xml version="1.0" encoding="UTF-8" standalone="no" ?>
<gpx xmlns="http://www.topografix.com/GPX/1/1" xmlns:xsi="http://www.w3.org/2001/XMLSchema-instance" xsi:schemaLocation="http://www.topografix.com/GPX/1/1 http://www.topografix.com/GPX/1/1/gpx.xsd" version="1.1" creator="VisuGPX - https://www.visugpx.com">
  <metadata>
    <name>La Ronde de Crussol 2021 - L'Illuminée  sur TraceDeTrail.fr</name>
  </metadata>
  <trk>
    <name><![CDATA[La Ronde de Crussol 2021 - L'Illuminée  sur TraceDeTrail.fr]]></name>
    <trkseg>
      <trkpt lat="44.94084" lon="4.85112">
        <ele>226</ele>
        <time>2000-01-01T01:23:17.000Z</time>
      </trkpt>
      <trkpt lat="44.94099" lon="4.85106">
        <ele>226.6</ele>
        <time>2000-01-01T01:23:27.000Z</time>
      </trkpt>
      <trkpt lat="44.9412" lon="4.8511">
        <ele>226</ele>
        <time>2000-01-01T01:23:37.000Z</time>
      </trkpt>
      <trkpt lat="44.94141" lon="4.85111">
        <ele>226</ele>
        <time>2000-01-01T01:23:47.000Z</time>
      </trkpt>
      <trkpt lat="44.94148" lon="4.85105">
        <ele>225.9</ele>
        <time>2000-01-01T01:23:57.000Z</time>
      </trkpt>
      <trkpt lat="44.9415" lon="4.85095">
        <ele>226.7</ele>
        <time>2000-01-01T01:24:07.000Z</time>
      </trkpt>
      <trkpt lat="44.94149" lon="4.85086">
        <ele>228</ele>
        <time>2000-01-01T01:24:17.000Z</time>
      </trkpt>
      <trkpt lat="44.94141" lon="4.85078">
        <ele>228.9</ele>
        <time>2000-01-01T01:24:27.000Z</time>
      </trkpt>
      <trkpt lat="44.94131" lon="4.85071">
        <ele>230</ele>
        <time>2000-01-01T01:24:37.000Z</time>
      </trkpt>
      <trkpt lat="44.94127" lon="4.85065">
        <ele>230.5</ele>
        <time>2000-01-01T01:24:47.000Z</time>
      </trkpt>
      <trkpt lat="44.9413" lon="4.8504">
        <ele>227</ele>
        <time>2000-01-01T01:24:57.000Z</time>
      </trkpt>
      <trkpt lat="44.94135" lon="4.8501">
        <ele>225</ele>
        <time>2000-01-01T01:25:07.000Z</time>
      </trkpt>
      <trkpt lat="44.94133" lon="4.84998">
        <ele>226</ele>
        <time>2000-01-01T01:25:17.000Z</time>
      </trkpt>
      <trkpt lat="44.94128" lon="4.84989">
        <ele>226</ele>
        <time>2000-01-01T01:25:27.000Z</time>
      </trkpt>
      <trkpt lat="44.94121" lon="4.84969">
        <ele>224</ele>
        <time>2000-01-01T01:25:37.000Z</time>
      </trkpt>
      <trkpt lat="44.9412" lon="4.84962">
        <ele>224.8</ele>
        <time>2000-01-01T01:25:47.000Z</time>
      </trkpt>
      <trkpt lat="44.9412" lon="4.84953">
        <ele>224.2</ele>
        <time>2000-01-01T01:25:57.000Z</time>
      </trkpt>
      <trkpt lat="44.94128" lon="4.84875">
        <ele>219</ele>
        <time>2000-01-01T01:26:07.000Z</time>
      </trkpt>
      <trkpt lat="44.94127" lon="4.84854">
        <ele>218.3</ele>
        <time>2000-01-01T01:26:17.000Z</time>
      </trkpt>
      <trkpt lat="44.94125" lon="4.84824">
        <ele>217</ele>
        <time>2000-01-01T01:26:27.000Z</time>
      </trkpt>
      <trkpt lat="44.94131" lon="4.84821">
        <ele>215.5</ele>
        <time>2000-01-01T01:26:37.000Z</time>
      </trkpt>
      <trkpt lat="44.94135" lon="4.8482">
        <ele>215</ele>
        <time>2000-01-01T01:26:47.000Z</time>
      </trkpt>
      <trkpt lat="44.94142" lon="4.8482">
        <ele>214.4</ele>
        <time>2000-01-01T01:26:57.000Z</time>
      </trkpt>
      <trkpt lat="44.94157" lon="4.84822">
        <ele>214</ele>
        <time>2000-01-01T01:27:07.000Z</time>
      </trkpt>
      <trkpt lat="44.94164" lon="4.84826">
        <ele>213.6</ele>
        <time>2000-01-01T01:27:17.000Z</time>
      </trkpt>
      <trkpt lat="44.94177" lon="4.84839">
        <ele>213</ele>
        <time>2000-01-01T01:27:27.000Z</time>
      </trkpt>
      <trkpt lat="44.94202" lon="4.84861">
        <ele>210</ele>
        <time>2000-01-01T01:27:37.000Z</time>
      </trkpt>
      <trkpt lat="44.94218" lon="4.84869">
        <ele>207.9</ele>
        <time>2000-01-01T01:27:47.000Z</time>
      </trkpt>
      <trkpt lat="44.94224" lon="4.84874">
        <ele>207</ele>
        <time>2000-01-01T01:27:57.000Z</time>
      </trkpt>
      <trkpt lat="44.94239" lon="4.84894">
        <ele>205</ele>
        <time>2000-01-01T01:28:07.000Z</time>
      </trkpt>
      <trkpt lat="44.94247" lon="4.84899">
        <ele>201.4</ele>
        <time>2000-01-01T01:28:17.000Z</time>
      </trkpt>
      <trkpt lat="44.94262" lon="4.84892">
        <ele>198</ele>
        <time>2000-01-01T01:28:27.000Z</time>
      </trkpt>
      <trkpt lat="44.94266" lon="4.84881">
        <ele>197.1</ele>
        <time>2000-01-01T01:28:37.000Z</time>
      </trkpt>
      <trkpt lat="44.94268" lon="4.8487">
        <ele>196.9</ele>
        <time>2000-01-01T01:28:47.000Z</time>
      </trkpt>
      <trkpt lat="44.94268" lon="4.84857">
        <ele>197</ele>
        <time>2000-01-01T01:28:57.000Z</time>
      </trkpt>
      <trkpt lat="44.94273" lon="4.84849">
        <ele>195.1</ele>
        <time>2000-01-01T01:29:07.000Z</time>
      </trkpt>
      <trkpt lat="44.94279" lon="4.84849">
        <ele>193.9</ele>
        <time>2000-01-01T01:29:17.000Z</time>
      </trkpt>
      <trkpt lat="44.94283" lon="4.84856">
        <ele>193</ele>
        <time>2000-01-01T01:29:27.000Z</time>
      </trkpt>
      <trkpt lat="44.94288" lon="4.84863">
        <ele>192.7</ele>
        <time>2000-01-01T01:29:37.000Z</time>
      </trkpt>
      <trkpt lat="44.94291" lon="4.84872">
        <ele>191.6</ele>
        <time>2000-01-01T01:29:47.000Z</time>
      </trkpt>
      <trkpt lat="44.94298" lon="4.84878">
        <ele>192</ele>
        <time>2000-01-01T01:29:57.000Z</time>
      </trkpt>
      <trkpt lat="44.94304" lon="4.84877">
        <ele>188.2</ele>
        <time>2000-01-01T01:30:07.000Z</time>
      </trkpt>
      <trkpt lat="44.94309" lon="4.84869">
        <ele>187.3</ele>
        <time>2000-01-01T01:30:17.000Z</time>
      </trkpt>
      <trkpt lat="44.94311" lon="4.8485">
        <ele>185</ele>
        <time>2000-01-01T01:30:27.000Z</time>
      </trkpt>
      <trkpt lat="44.9431" lon="4.84833">
        <ele>185.7</ele>
        <time>2000-01-01T01:30:37.000Z</time>
      </trkpt>
      <trkpt lat="44.94306" lon="4.84811">
        <ele>185</ele>
        <time>2000-01-01T01:30:47.000Z</time>
      </trkpt>
      <trkpt lat="44.94304" lon="4.84782">
        <ele>180</ele>
        <time>2000-01-01T01:30:57.000Z</time>
      </trkpt>
      <trkpt lat="44.94306" lon="4.84767">
        <ele>178.4</ele>
        <time>2000-01-01T01:31:07.000Z</time>
      </trkpt>
      <trkpt lat="44.94308" lon="4.84759">
        <ele>177.4</ele>
        <time>2000-01-01T01:31:17.000Z</time>
      </trkpt>
      <trkpt lat="44.94313" lon="4.84751">
        <ele>176</ele>
        <time>2000-01-01T01:31:27.000Z</time>
      </trkpt>
      <trkpt lat="44.94314" lon="4.84738">
        <ele>173.5</ele>
        <time>2000-01-01T01:31:37.000Z</time>
      </trkpt>
      <trkpt lat="44.94314" lon="4.84723">
        <ele>173</ele>
        <time>2000-01-01T01:31:47.000Z</time>
      </trkpt>
      <trkpt lat="44.94306" lon="4.84702">
        <ele>171.7</ele>
        <time>2000-01-01T01:31:57.000Z</time>
      </trkpt>
      <trkpt lat="44.94299" lon="4.84696">
        <ele>171</ele>
        <time>2000-01-01T01:32:07.000Z</time>
      </trkpt>
      <trkpt lat="44.94294" lon="4.84687">
        <ele>170.7</ele>
        <time>2000-01-01T01:32:17.000Z</time>
      </trkpt>
      <trkpt lat="44.9429" lon="4.84677">
        <ele>169.7</ele>
        <time>2000-01-01T01:32:27.000Z</time>
      </trkpt>
      <trkpt lat="44.94286" lon="4.84661">
        <ele>171</ele>
        <time>2000-01-01T01:32:37.000Z</time>
      </trkpt>
      <trkpt lat="44.94276" lon="4.84665">
        <ele>169.7</ele>
        <time>2000-01-01T01:32:47.000Z</time>
      </trkpt>
      <trkpt lat="44.94259" lon="4.84675">
        <ele>171</ele>
        <time>2000-01-01T01:32:57.000Z</time>
      </trkpt>
      <trkpt lat="44.94246" lon="4.84685">
        <ele>175.1</ele>
        <time>2000-01-01T01:33:07.000Z</time>
      </trkpt>
      <trkpt lat="44.94236" lon="4.8469">
        <ele>172</ele>
        <time>2000-01-01T01:33:17.000Z</time>
      </trkpt>
      <trkpt lat="44.94209" lon="4.84708">
        <ele>179</ele>
        <time>2000-01-01T01:33:27.000Z</time>
      </trkpt>
      <trkpt lat="44.94188" lon="4.84723">
        <ele>186</ele>
        <time>2000-01-01T01:33:37.000Z</time>
      </trkpt>
      <trkpt lat="44.94166" lon="4.84738">
        <ele>188</ele>
        <time>2000-01-01T01:33:47.000Z</time>
      </trkpt>
      <trkpt lat="44.94138" lon="4.84754">
        <ele>194</ele>
        <time>2000-01-01T01:33:57.000Z</time>
      </trkpt>
      <trkpt lat="44.94129" lon="4.84751">
        <ele>195</ele>
        <time>2000-01-01T01:34:07.000Z</time>
      </trkpt>
      <trkpt lat="44.94123" lon="4.8475">
        <ele>195.9</ele>
        <time>2000-01-01T01:34:17.000Z</time>
      </trkpt>
      <trkpt lat="44.94112" lon="4.84751">
        <ele>197</ele>
        <time>2000-01-01T01:34:27.000Z</time>
      </trkpt>
      <trkpt lat="44.94104" lon="4.84749">
        <ele>199.5</ele>
        <time>2000-01-01T01:34:37.000Z</time>
      </trkpt>
      <trkpt lat="44.94091" lon="4.84743">
        <ele>200</ele>
        <time>2000-01-01T01:34:47.000Z</time>
      </trkpt>
      <trkpt lat="44.94091" lon="4.84745">
        <ele>201</ele>
        <time>2000-01-01T01:34:57.000Z</time>
      </trkpt>
      <trkpt lat="44.9409" lon="4.84748">
        <ele>202.5</ele>
        <time>2000-01-01T01:35:07.000Z</time>
      </trkpt>
      <trkpt lat="44.9409" lon="4.84752">
        <ele>204</ele>
        <time>2000-01-01T01:35:17.000Z</time>
      </trkpt>
      <trkpt lat="44.94091" lon="4.84754">
        <ele>204.3</ele>
        <time>2000-01-01T01:35:27.000Z</time>
      </trkpt>
      <trkpt lat="44.94094" lon="4.84757">
        <ele>204.5</ele>
        <time>2000-01-01T01:35:37.000Z</time>
      </trkpt>
      <trkpt lat="44.941" lon="4.84761">
        <ele>204.1</ele>
        <time>2000-01-01T01:35:47.000Z</time>
      </trkpt>
      <trkpt lat="44.94101" lon="4.84763">
        <ele>205</ele>
        <time>2000-01-01T01:35:57.000Z</time>
      </trkpt>
      <trkpt lat="44.941" lon="4.84765">
        <ele>205.3</ele>
        <time>2000-01-01T01:36:07.000Z</time>
      </trkpt>
      <trkpt lat="44.94098" lon="4.84767">
        <ele>206.5</ele>
        <time>2000-01-01T01:36:17.000Z</time>
      </trkpt>
      <trkpt lat="44.94097" lon="4.84767">
        <ele>206.8</ele>
        <time>2000-01-01T01:36:27.000Z</time>
      </trkpt>
      <trkpt lat="44.94096" lon="4.84769">
        <ele>207.7</ele>
        <time>2000-01-01T01:36:37.000Z</time>
      </trkpt>
      <trkpt lat="44.94102" lon="4.84773">
        <ele>207.2</ele>
        <time>2000-01-01T01:36:47.000Z</time>
      </trkpt>
      <trkpt lat="44.941" lon="4.84776">
        <ele>208.7</ele>
        <time>2000-01-01T01:36:57.000Z</time>
      </trkpt>
      <trkpt lat="44.94099" lon="4.84779">
        <ele>209.8</ele>
        <time>2000-01-01T01:37:07.000Z</time>
      </trkpt>
      <trkpt lat="44.94099" lon="4.84781">
        <ele>213</ele>
        <time>2000-01-01T01:37:17.000Z</time>
      </trkpt>
      <trkpt lat="44.94098" lon="4.84784">
        <ele>211.4</ele>
        <time>2000-01-01T01:37:27.000Z</time>
      </trkpt>
      <trkpt lat="44.94098" lon="4.84787">
        <ele>212.2</ele>
        <time>2000-01-01T01:37:37.000Z</time>
      </trkpt>
      <trkpt lat="44.94097" lon="4.84791">
        <ele>213.4</ele>
        <time>2000-01-01T01:37:47.000Z</time>
      </trkpt>
      <trkpt lat="44.94096" lon="4.84792">
        <ele>213.8</ele>
        <time>2000-01-01T01:37:57.000Z</time>
      </trkpt>
      <trkpt lat="44.94087" lon="4.84788">
        <ele>214.7</ele>
        <time>2000-01-01T01:38:07.000Z</time>
      </trkpt>
      <trkpt lat="44.94073" lon="4.84786">
        <ele>214</ele>
        <time>2000-01-01T01:38:17.000Z</time>
      </trkpt>
      <trkpt lat="44.94059" lon="4.84783">
        <ele>215.8</ele>
        <time>2000-01-01T01:38:27.000Z</time>
      </trkpt>
      <trkpt lat="44.94043" lon="4.84783">
        <ele>216</ele>
        <time>2000-01-01T01:38:37.000Z</time>
      </trkpt>
      <trkpt lat="44.9402" lon="4.84782">
        <ele>219</ele>
        <time>2000-01-01T01:38:47.000Z</time>
      </trkpt>
      <trkpt lat="44.94001" lon="4.84783">
        <ele>221.8</ele>
        <time>2000-01-01T01:38:57.000Z</time>
      </trkpt>
      <trkpt lat="44.93995" lon="4.84784">
        <ele>221</ele>
        <time>2000-01-01T01:39:07.000Z</time>
      </trkpt>
      <trkpt lat="44.93989" lon="4.84788">
        <ele>223.8</ele>
        <time>2000-01-01T01:39:17.000Z</time>
      </trkpt>
      <trkpt lat="44.93981" lon="4.84795">
        <ele>225.9</ele>
        <time>2000-01-01T01:39:27.000Z</time>
      </trkpt>
      <trkpt lat="44.93974" lon="4.84793">
        <ele>225</ele>
        <time>2000-01-01T01:39:37.000Z</time>
      </trkpt>
      <trkpt lat="44.93964" lon="4.84787">
        <ele>226.9</ele>
        <time>2000-01-01T01:39:47.000Z</time>
      </trkpt>
      <trkpt lat="44.93954" lon="4.8478">
        <ele>225</ele>
        <time>2000-01-01T01:39:57.000Z</time>
      </trkpt>
      <trkpt lat="44.93945" lon="4.84775">
        <ele>228.4</ele>
        <time>2000-01-01T01:40:07.000Z</time>
      </trkpt>
      <trkpt lat="44.93934" lon="4.84768">
        <ele>228</ele>
        <time>2000-01-01T01:40:17.000Z</time>
      </trkpt>
      <trkpt lat="44.93937" lon="4.84771">
        <ele>229.5</ele>
        <time>2000-01-01T01:40:27.000Z</time>
      </trkpt>
      <trkpt lat="44.93928" lon="4.8476">
        <ele>229.2</ele>
        <time>2000-01-01T01:40:37.000Z</time>
      </trkpt>
      <trkpt lat="44.93919" lon="4.84751">
        <ele>227</ele>
        <time>2000-01-01T01:40:47.000Z</time>
      </trkpt>
      <trkpt lat="44.93916" lon="4.8475">
        <ele>229.1</ele>
        <time>2000-01-01T01:40:57.000Z</time>
      </trkpt>
      <trkpt lat="44.93913" lon="4.84746">
        <ele>228.8</ele>
        <time>2000-01-01T01:41:07.000Z</time>
      </trkpt>
      <trkpt lat="44.9391" lon="4.84744">
        <ele>228.8</ele>
        <time>2000-01-01T01:41:17.000Z</time>
      </trkpt>
      <trkpt lat="44.93899" lon="4.84733">
        <ele>227</ele>
        <time>2000-01-01T01:41:27.000Z</time>
      </trkpt>
      <trkpt lat="44.93894" lon="4.84729">
        <ele>227.3</ele>
        <time>2000-01-01T01:41:37.000Z</time>
      </trkpt>
      <trkpt lat="44.93891" lon="4.84728">
        <ele>227.3</ele>
        <time>2000-01-01T01:41:47.000Z</time>
      </trkpt>
      <trkpt lat="44.93887" lon="4.84725">
        <ele>226.8</ele>
        <time>2000-01-01T01:41:57.000Z</time>
      </trkpt>
      <trkpt lat="44.93883" lon="4.84723">
        <ele>226.6</ele>
        <time>2000-01-01T01:42:07.000Z</time>
      </trkpt>
      <trkpt lat="44.93872" lon="4.84715">
        <ele>223</ele>
        <time>2000-01-01T01:42:17.000Z</time>
      </trkpt>
      <trkpt lat="44.93869" lon="4.84715">
        <ele>224.5</ele>
        <time>2000-01-01T01:42:27.000Z</time>
      </trkpt>
      <trkpt lat="44.93858" lon="4.8471">
        <ele>222.6</ele>
        <time>2000-01-01T01:42:37.000Z</time>
      </trkpt>
      <trkpt lat="44.93853" lon="4.84709">
        <ele>221</ele>
        <time>2000-01-01T01:42:47.000Z</time>
      </trkpt>
      <trkpt lat="44.93847" lon="4.84709">
        <ele>221.7</ele>
        <time>2000-01-01T01:42:57.000Z</time>
      </trkpt>
      <trkpt lat="44.93833" lon="4.84713">
        <ele>223</ele>
        <time>2000-01-01T01:43:07.000Z</time>
      </trkpt>
      <trkpt lat="44.93825" lon="4.84713">
        <ele>223.3</ele>
        <time>2000-01-01T01:43:17.000Z</time>
      </trkpt>
      <trkpt lat="44.93822" lon="4.84712">
        <ele>223.5</ele>
        <time>2000-01-01T01:43:27.000Z</time>
      </trkpt>
      <trkpt lat="44.93819" lon="4.8471">
        <ele>223.4</ele>
        <time>2000-01-01T01:43:37.000Z</time>
      </trkpt>
      <trkpt lat="44.9381" lon="4.847">
        <ele>220</ele>
        <time>2000-01-01T01:43:47.000Z</time>
      </trkpt>
      <trkpt lat="44.93811" lon="4.84695">
        <ele>221.9</ele>
        <time>2000-01-01T01:43:57.000Z</time>
      </trkpt>
      <trkpt lat="44.93812" lon="4.84685">
        <ele>220.5</ele>
        <time>2000-01-01T01:44:07.000Z</time>
      </trkpt>
      <trkpt lat="44.93811" lon="4.84661">
        <ele>217</ele>
        <time>2000-01-01T01:44:17.000Z</time>
      </trkpt>
      <trkpt lat="44.93797" lon="4.84641">
        <ele>217</ele>
        <time>2000-01-01T01:44:27.000Z</time>
      </trkpt>
      <trkpt lat="44.93773" lon="4.84635">
        <ele>218</ele>
        <time>2000-01-01T01:44:37.000Z</time>
      </trkpt>
      <trkpt lat="44.93747" lon="4.84628">
        <ele>217</ele>
        <time>2000-01-01T01:44:47.000Z</time>
      </trkpt>
      <trkpt lat="44.9374" lon="4.84627">
        <ele>220.8</ele>
        <time>2000-01-01T01:44:57.000Z</time>
      </trkpt>
      <trkpt lat="44.93708" lon="4.846">
        <ele>217</ele>
        <time>2000-01-01T01:45:07.000Z</time>
      </trkpt>
      <trkpt lat="44.93681" lon="4.84602">
        <ele>216</ele>
        <time>2000-01-01T01:45:17.000Z</time>
      </trkpt>
      <trkpt lat="44.93667" lon="4.84604">
        <ele>218.7</ele>
        <time>2000-01-01T01:45:27.000Z</time>
      </trkpt>
      <trkpt lat="44.93625" lon="4.84604">
        <ele>216</ele>
        <time>2000-01-01T01:45:37.000Z</time>
      </trkpt>
      <trkpt lat="44.9362" lon="4.84602">
        <ele>218.1</ele>
        <time>2000-01-01T01:45:47.000Z</time>
      </trkpt>
      <trkpt lat="44.93599" lon="4.84591">
        <ele>216</ele>
        <time>2000-01-01T01:45:57.000Z</time>
      </trkpt>
      <trkpt lat="44.93589" lon="4.84577">
        <ele>222</ele>
        <time>2000-01-01T01:46:07.000Z</time>
      </trkpt>
      <trkpt lat="44.93553" lon="4.84562">
        <ele>215</ele>
        <time>2000-01-01T01:46:17.000Z</time>
      </trkpt>
      <trkpt lat="44.93537" lon="4.84571">
        <ele>219.4</ele>
        <time>2000-01-01T01:46:27.000Z</time>
      </trkpt>
      <trkpt lat="44.93514" lon="4.84569">
        <ele>215</ele>
        <time>2000-01-01T01:46:37.000Z</time>
      </trkpt>
      <trkpt lat="44.93491" lon="4.84568">
        <ele>218</ele>
        <time>2000-01-01T01:46:47.000Z</time>
      </trkpt>
      <trkpt lat="44.93476" lon="4.84555">
        <ele>220.1</ele>
        <time>2000-01-01T01:46:57.000Z</time>
      </trkpt>
      <trkpt lat="44.93457" lon="4.84555">
        <ele>218</ele>
        <time>2000-01-01T01:47:07.000Z</time>
      </trkpt>
      <trkpt lat="44.9345" lon="4.84563">
        <ele>222.8</ele>
        <time>2000-01-01T01:47:17.000Z</time>
      </trkpt>
      <trkpt lat="44.93429" lon="4.84566">
        <ele>218</ele>
        <time>2000-01-01T01:47:27.000Z</time>
      </trkpt>
      <trkpt lat="44.93399" lon="4.84586">
        <ele>228</ele>
        <time>2000-01-01T01:47:37.000Z</time>
      </trkpt>
      <trkpt lat="44.9337" lon="4.84551">
        <ele>235</ele>
        <time>2000-01-01T01:47:47.000Z</time>
      </trkpt>
      <trkpt lat="44.93364" lon="4.84545">
        <ele>233.9</ele>
        <time>2000-01-01T01:47:57.000Z</time>
      </trkpt>
      <trkpt lat="44.9334" lon="4.84527">
        <ele>235</ele>
        <time>2000-01-01T01:48:07.000Z</time>
      </trkpt>
      <trkpt lat="44.93329" lon="4.84518">
        <ele>235.2</ele>
        <time>2000-01-01T01:48:17.000Z</time>
      </trkpt>
      <trkpt lat="44.93298" lon="4.84514">
        <ele>236</ele>
        <time>2000-01-01T01:48:27.000Z</time>
      </trkpt>
      <trkpt lat="44.93274" lon="4.84532">
        <ele>234</ele>
        <time>2000-01-01T01:48:37.000Z</time>
      </trkpt>
      <trkpt lat="44.93242" lon="4.84534">
        <ele>234</ele>
        <time>2000-01-01T01:48:47.000Z</time>
      </trkpt>
      <trkpt lat="44.93224" lon="4.84547">
        <ele>235</ele>
        <time>2000-01-01T01:48:57.000Z</time>
      </trkpt>
      <trkpt lat="44.93202" lon="4.84535">
        <ele>237</ele>
        <time>2000-01-01T01:49:07.000Z</time>
      </trkpt>
      <trkpt lat="44.93184" lon="4.84542">
        <ele>240.6</ele>
        <time>2000-01-01T01:49:17.000Z</time>
      </trkpt>
      <trkpt lat="44.9314" lon="4.84567">
        <ele>242</ele>
        <time>2000-01-01T01:49:27.000Z</time>
      </trkpt>
      <trkpt lat="44.93112" lon="4.84596">
        <ele>248</ele>
        <time>2000-01-01T01:49:37.000Z</time>
      </trkpt>
      <trkpt lat="44.93098" lon="4.84608">
        <ele>254.7</ele>
        <time>2000-01-01T01:49:47.000Z</time>
      </trkpt>
      <trkpt lat="44.93073" lon="4.84627">
        <ele>255</ele>
        <time>2000-01-01T01:49:57.000Z</time>
      </trkpt>
      <trkpt lat="44.93067" lon="4.84625">
        <ele>261.4</ele>
        <time>2000-01-01T01:50:07.000Z</time>
      </trkpt>
      <trkpt lat="44.93061" lon="4.84609">
        <ele>259.5</ele>
        <time>2000-01-01T01:50:17.000Z</time>
      </trkpt>
      <trkpt lat="44.93051" lon="4.84588">
        <ele>261</ele>
        <time>2000-01-01T01:50:27.000Z</time>
      </trkpt>
      <trkpt lat="44.93046" lon="4.84579">
        <ele>261.9</ele>
        <time>2000-01-01T01:50:37.000Z</time>
      </trkpt>
      <trkpt lat="44.93038" lon="4.84571">
        <ele>262.2</ele>
        <time>2000-01-01T01:50:47.000Z</time>
      </trkpt>
      <trkpt lat="44.93032" lon="4.8457">
        <ele>261</ele>
        <time>2000-01-01T01:50:57.000Z</time>
      </trkpt>
      <trkpt lat="44.93022" lon="4.84573">
        <ele>264.7</ele>
        <time>2000-01-01T01:51:07.000Z</time>
      </trkpt>
      <trkpt lat="44.92997" lon="4.84588">
        <ele>266</ele>
        <time>2000-01-01T01:51:17.000Z</time>
      </trkpt>
      <trkpt lat="44.92975" lon="4.84607">
        <ele>269</ele>
        <time>2000-01-01T01:51:27.000Z</time>
      </trkpt>
      <trkpt lat="44.92958" lon="4.84619">
        <ele>278.6</ele>
        <time>2000-01-01T01:51:37.000Z</time>
      </trkpt>
      <trkpt lat="44.92949" lon="4.84622">
        <ele>277</ele>
        <time>2000-01-01T01:51:47.000Z</time>
      </trkpt>
      <trkpt lat="44.92942" lon="4.84618">
        <ele>279.4</ele>
        <time>2000-01-01T01:51:57.000Z</time>
      </trkpt>
      <trkpt lat="44.92927" lon="4.8457">
        <ele>278</ele>
        <time>2000-01-01T01:52:07.000Z</time>
      </trkpt>
      <trkpt lat="44.92916" lon="4.84565">
        <ele>282.6</ele>
        <time>2000-01-01T01:52:17.000Z</time>
      </trkpt>
      <trkpt lat="44.92901" lon="4.84569">
        <ele>279</ele>
        <time>2000-01-01T01:52:27.000Z</time>
      </trkpt>
      <trkpt lat="44.92893" lon="4.84576">
        <ele>284.1</ele>
        <time>2000-01-01T01:52:37.000Z</time>
      </trkpt>
      <trkpt lat="44.92854" lon="4.84604">
        <ele>286</ele>
        <time>2000-01-01T01:52:47.000Z</time>
      </trkpt>
      <trkpt lat="44.92844" lon="4.84609">
        <ele>289.5</ele>
        <time>2000-01-01T01:52:57.000Z</time>
      </trkpt>
      <trkpt lat="44.92814" lon="4.84611">
        <ele>287</ele>
        <time>2000-01-01T01:53:07.000Z</time>
      </trkpt>
      <trkpt lat="44.92794" lon="4.84607">
        <ele>289</ele>
        <time>2000-01-01T01:53:17.000Z</time>
      </trkpt>
      <trkpt lat="44.92783" lon="4.84606">
        <ele>290.6</ele>
        <time>2000-01-01T01:53:27.000Z</time>
      </trkpt>
      <trkpt lat="44.92774" lon="4.84612">
        <ele>289</ele>
        <time>2000-01-01T01:53:37.000Z</time>
      </trkpt>
      <trkpt lat="44.92769" lon="4.84618">
        <ele>292.1</ele>
        <time>2000-01-01T01:53:47.000Z</time>
      </trkpt>
      <trkpt lat="44.92762" lon="4.84625">
        <ele>292.4</ele>
        <time>2000-01-01T01:53:57.000Z</time>
      </trkpt>
      <trkpt lat="44.92744" lon="4.84639">
        <ele>289</ele>
        <time>2000-01-01T01:54:07.000Z</time>
      </trkpt>
      <trkpt lat="44.92729" lon="4.84641">
        <ele>294.4</ele>
        <time>2000-01-01T01:54:17.000Z</time>
      </trkpt>
      <trkpt lat="44.92722" lon="4.84638">
        <ele>293</ele>
        <time>2000-01-01T01:54:27.000Z</time>
      </trkpt>
      <trkpt lat="44.9272" lon="4.84638">
        <ele>294.6</ele>
        <time>2000-01-01T01:54:37.000Z</time>
      </trkpt>
      <trkpt lat="44.9271" lon="4.8461">
        <ele>294</ele>
        <time>2000-01-01T01:54:47.000Z</time>
      </trkpt>
      <trkpt lat="44.92708" lon="4.84572">
        <ele>291</ele>
        <time>2000-01-01T01:54:57.000Z</time>
      </trkpt>
      <trkpt lat="44.92706" lon="4.84521">
        <ele>289</ele>
        <time>2000-01-01T01:55:07.000Z</time>
      </trkpt>
      <trkpt lat="44.92701" lon="4.84501">
        <ele>283.3</ele>
        <time>2000-01-01T01:55:17.000Z</time>
      </trkpt>
      <trkpt lat="44.92682" lon="4.84488">
        <ele>288</ele>
        <time>2000-01-01T01:55:27.000Z</time>
      </trkpt>
      <trkpt lat="44.92655" lon="4.8448">
        <ele>290</ele>
        <time>2000-01-01T01:55:37.000Z</time>
      </trkpt>
      <trkpt lat="44.92645" lon="4.84479">
        <ele>290.2</ele>
        <time>2000-01-01T01:55:47.000Z</time>
      </trkpt>
      <trkpt lat="44.92637" lon="4.84481">
        <ele>291.3</ele>
        <time>2000-01-01T01:55:57.000Z</time>
      </trkpt>
      <trkpt lat="44.92633" lon="4.84488">
        <ele>293</ele>
        <time>2000-01-01T01:56:07.000Z</time>
      </trkpt>
      <trkpt lat="44.92623" lon="4.84496">
        <ele>294.5</ele>
        <time>2000-01-01T01:56:17.000Z</time>
      </trkpt>
      <trkpt lat="44.92615" lon="4.84501">
        <ele>295</ele>
        <time>2000-01-01T01:56:27.000Z</time>
      </trkpt>
      <trkpt lat="44.92603" lon="4.84513">
        <ele>298.6</ele>
        <time>2000-01-01T01:56:37.000Z</time>
      </trkpt>
      <trkpt lat="44.92594" lon="4.84518">
        <ele>297</ele>
        <time>2000-01-01T01:56:47.000Z</time>
      </trkpt>
      <trkpt lat="44.92589" lon="4.84523">
        <ele>301.1</ele>
        <time>2000-01-01T01:56:57.000Z</time>
      </trkpt>
      <trkpt lat="44.92583" lon="4.84525">
        <ele>301.6</ele>
        <time>2000-01-01T01:57:07.000Z</time>
      </trkpt>
      <trkpt lat="44.92575" lon="4.84521">
        <ele>302</ele>
        <time>2000-01-01T01:57:17.000Z</time>
      </trkpt>
      <trkpt lat="44.9257" lon="4.84514">
        <ele>302.2</ele>
        <time>2000-01-01T01:57:27.000Z</time>
      </trkpt>
      <trkpt lat="44.92567" lon="4.84512">
        <ele>302.5</ele>
        <time>2000-01-01T01:57:37.000Z</time>
      </trkpt>
      <trkpt lat="44.92566" lon="4.84514">
        <ele>302.9</ele>
        <time>2000-01-01T01:57:47.000Z</time>
      </trkpt>
      <trkpt lat="44.92551" lon="4.84495">
        <ele>305</ele>
        <time>2000-01-01T01:57:57.000Z</time>
      </trkpt>
      <trkpt lat="44.92548" lon="4.84494">
        <ele>305.1</ele>
        <time>2000-01-01T01:58:07.000Z</time>
      </trkpt>
      <trkpt lat="44.92525" lon="4.84507">
        <ele>308</ele>
        <time>2000-01-01T01:58:17.000Z</time>
      </trkpt>
      <trkpt lat="44.92512" lon="4.84517">
        <ele>313.6</ele>
        <time>2000-01-01T01:58:27.000Z</time>
      </trkpt>
      <trkpt lat="44.92507" lon="4.84523">
        <ele>310</ele>
        <time>2000-01-01T01:58:37.000Z</time>
      </trkpt>
      <trkpt lat="44.92498" lon="4.84526">
        <ele>310.9</ele>
        <time>2000-01-01T01:58:47.000Z</time>
      </trkpt>
      <trkpt lat="44.92489" lon="4.84521">
        <ele>309.5</ele>
        <time>2000-01-01T01:58:57.000Z</time>
      </trkpt>
      <trkpt lat="44.92485" lon="4.84516">
        <ele>309</ele>
        <time>2000-01-01T01:59:07.000Z</time>
      </trkpt>
      <trkpt lat="44.92482" lon="4.84511">
        <ele>310</ele>
        <time>2000-01-01T01:59:17.000Z</time>
      </trkpt>
      <trkpt lat="44.9248" lon="4.84507">
        <ele>310.5</ele>
        <time>2000-01-01T01:59:27.000Z</time>
      </trkpt>
      <trkpt lat="44.9248" lon="4.84501">
        <ele>312</ele>
        <time>2000-01-01T01:59:37.000Z</time>
      </trkpt>
      <trkpt lat="44.92482" lon="4.84493">
        <ele>311.5</ele>
        <time>2000-01-01T01:59:47.000Z</time>
      </trkpt>
      <trkpt lat="44.92482" lon="4.84489">
        <ele>309</ele>
        <time>2000-01-01T01:59:57.000Z</time>
      </trkpt>
      <trkpt lat="44.9248" lon="4.84484">
        <ele>309.3</ele>
        <time>2000-01-01T02:00:07.000Z</time>
      </trkpt>
      <trkpt lat="44.92477" lon="4.84483">
        <ele>308.5</ele>
        <time>2000-01-01T02:00:17.000Z</time>
      </trkpt>
      <trkpt lat="44.92474" lon="4.84483">
        <ele>307.9</ele>
        <time>2000-01-01T02:00:27.000Z</time>
      </trkpt>
      <trkpt lat="44.92469" lon="4.84486">
        <ele>306.1</ele>
        <time>2000-01-01T02:00:37.000Z</time>
      </trkpt>
      <trkpt lat="44.92464" lon="4.84491">
        <ele>305</ele>
        <time>2000-01-01T02:00:47.000Z</time>
      </trkpt>
      <trkpt lat="44.92462" lon="4.84494">
        <ele>303.4</ele>
        <time>2000-01-01T02:00:57.000Z</time>
      </trkpt>
      <trkpt lat="44.9246" lon="4.84499">
        <ele>303.2</ele>
        <time>2000-01-01T02:01:07.000Z</time>
      </trkpt>
      <trkpt lat="44.92457" lon="4.84513">
        <ele>302.4</ele>
        <time>2000-01-01T02:01:17.000Z</time>
      </trkpt>
      <trkpt lat="44.92457" lon="4.8452">
        <ele>305</ele>
        <time>2000-01-01T02:01:27.000Z</time>
      </trkpt>
      <trkpt lat="44.92456" lon="4.84527">
        <ele>303</ele>
        <time>2000-01-01T02:01:37.000Z</time>
      </trkpt>
      <trkpt lat="44.92456" lon="4.84531">
        <ele>303.2</ele>
        <time>2000-01-01T02:01:47.000Z</time>
      </trkpt>
      <trkpt lat="44.92454" lon="4.84539">
        <ele>303.8</ele>
        <time>2000-01-01T02:01:57.000Z</time>
      </trkpt>
      <trkpt lat="44.92452" lon="4.84544">
        <ele>304.2</ele>
        <time>2000-01-01T02:02:07.000Z</time>
      </trkpt>
      <trkpt lat="44.92444" lon="4.84559">
        <ele>305</ele>
        <time>2000-01-01T02:02:17.000Z</time>
      </trkpt>
      <trkpt lat="44.92436" lon="4.84569">
        <ele>305.6</ele>
        <time>2000-01-01T02:02:27.000Z</time>
      </trkpt>
      <trkpt lat="44.92424" lon="4.84582">
        <ele>305</ele>
        <time>2000-01-01T02:02:37.000Z</time>
      </trkpt>
      <trkpt lat="44.92418" lon="4.84587">
        <ele>305.5</ele>
        <time>2000-01-01T02:02:47.000Z</time>
      </trkpt>
      <trkpt lat="44.92411" lon="4.84589">
        <ele>307.1</ele>
        <time>2000-01-01T02:02:57.000Z</time>
      </trkpt>
      <trkpt lat="44.92409" lon="4.84588">
        <ele>307.3</ele>
        <time>2000-01-01T02:03:07.000Z</time>
      </trkpt>
      <trkpt lat="44.92405" lon="4.84584">
        <ele>305</ele>
        <time>2000-01-01T02:03:17.000Z</time>
      </trkpt>
      <trkpt lat="44.92404" lon="4.84579">
        <ele>306.4</ele>
        <time>2000-01-01T02:03:27.000Z</time>
      </trkpt>
      <trkpt lat="44.92404" lon="4.84576">
        <ele>305.9</ele>
        <time>2000-01-01T02:03:37.000Z</time>
      </trkpt>
      <trkpt lat="44.92403" lon="4.84572">
        <ele>305.4</ele>
        <time>2000-01-01T02:03:47.000Z</time>
      </trkpt>
      <trkpt lat="44.92403" lon="4.84568">
        <ele>304.7</ele>
        <time>2000-01-01T02:03:57.000Z</time>
      </trkpt>
      <trkpt lat="44.92401" lon="4.84563">
        <ele>304.3</ele>
        <time>2000-01-01T02:04:07.000Z</time>
      </trkpt>
      <trkpt lat="44.92401" lon="4.84558">
        <ele>300</ele>
        <time>2000-01-01T02:04:17.000Z</time>
      </trkpt>
      <trkpt lat="44.92402" lon="4.84554">
        <ele>302.4</ele>
        <time>2000-01-01T02:04:27.000Z</time>
      </trkpt>
      <trkpt lat="44.92402" lon="4.84552">
        <ele>302.1</ele>
        <time>2000-01-01T02:04:37.000Z</time>
      </trkpt>
      <trkpt lat="44.92403" lon="4.8455">
        <ele>301.5</ele>
        <time>2000-01-01T02:04:47.000Z</time>
      </trkpt>
      <trkpt lat="44.92412" lon="4.84546">
        <ele>298.3</ele>
        <time>2000-01-01T02:04:57.000Z</time>
      </trkpt>
      <trkpt lat="44.92413" lon="4.84545">
        <ele>297.8</ele>
        <time>2000-01-01T02:05:07.000Z</time>
      </trkpt>
      <trkpt lat="44.92416" lon="4.84546">
        <ele>299</ele>
        <time>2000-01-01T02:05:17.000Z</time>
      </trkpt>
      <trkpt lat="44.92417" lon="4.84545">
        <ele>296.8</ele>
        <time>2000-01-01T02:05:27.000Z</time>
      </trkpt>
      <trkpt lat="44.92421" lon="4.84545">
        <ele>297.9</ele>
        <time>2000-01-01T02:05:37.000Z</time>
      </trkpt>
      <trkpt lat="44.92423" lon="4.84544">
        <ele>298.3</ele>
        <time>2000-01-01T02:05:47.000Z</time>
      </trkpt>
      <trkpt lat="44.92424" lon="4.84542">
        <ele>298.2</ele>
        <time>2000-01-01T02:05:57.000Z</time>
      </trkpt>
      <trkpt lat="44.92426" lon="4.84541">
        <ele>298.6</ele>
        <time>2000-01-01T02:06:07.000Z</time>
      </trkpt>
      <trkpt lat="44.92428" lon="4.84535">
        <ele>298.2</ele>
        <time>2000-01-01T02:06:17.000Z</time>
      </trkpt>
      <trkpt lat="44.9243" lon="4.84531">
        <ele>292</ele>
        <time>2000-01-01T02:06:27.000Z</time>
      </trkpt>
      <trkpt lat="44.92433" lon="4.84513">
        <ele>295.1</ele>
        <time>2000-01-01T02:06:37.000Z</time>
      </trkpt>
      <trkpt lat="44.92435" lon="4.84504">
        <ele>289</ele>
        <time>2000-01-01T02:06:47.000Z</time>
      </trkpt>
      <trkpt lat="44.92441" lon="4.84484">
        <ele>290</ele>
        <time>2000-01-01T02:06:57.000Z</time>
      </trkpt>
      <trkpt lat="44.92441" lon="4.84477">
        <ele>286</ele>
        <time>2000-01-01T02:07:07.000Z</time>
      </trkpt>
      <trkpt lat="44.92439" lon="4.84474">
        <ele>287.1</ele>
        <time>2000-01-01T02:07:17.000Z</time>
      </trkpt>
      <trkpt lat="44.92437" lon="4.84473">
        <ele>286.3</ele>
        <time>2000-01-01T02:07:27.000Z</time>
      </trkpt>
      <trkpt lat="44.92434" lon="4.84473">
        <ele>285.6</ele>
        <time>2000-01-01T02:07:37.000Z</time>
      </trkpt>
      <trkpt lat="44.92431" lon="4.84475">
        <ele>285.3</ele>
        <time>2000-01-01T02:07:47.000Z</time>
      </trkpt>
      <trkpt lat="44.92427" lon="4.84483">
        <ele>286.1</ele>
        <time>2000-01-01T02:07:57.000Z</time>
      </trkpt>
      <trkpt lat="44.92423" lon="4.84488">
        <ele>283</ele>
        <time>2000-01-01T02:08:07.000Z</time>
      </trkpt>
      <trkpt lat="44.9242" lon="4.8449">
        <ele>285.8</ele>
        <time>2000-01-01T02:08:17.000Z</time>
      </trkpt>
      <trkpt lat="44.92418" lon="4.8449">
        <ele>285.2</ele>
        <time>2000-01-01T02:08:27.000Z</time>
      </trkpt>
      <trkpt lat="44.92416" lon="4.84489">
        <ele>284.9</ele>
        <time>2000-01-01T02:08:37.000Z</time>
      </trkpt>
      <trkpt lat="44.92415" lon="4.84488">
        <ele>285.1</ele>
        <time>2000-01-01T02:08:47.000Z</time>
      </trkpt>
      <trkpt lat="44.92414" lon="4.84485">
        <ele>284.9</ele>
        <time>2000-01-01T02:08:57.000Z</time>
      </trkpt>
      <trkpt lat="44.92413" lon="4.84479">
        <ele>284.1</ele>
        <time>2000-01-01T02:09:07.000Z</time>
      </trkpt>
      <trkpt lat="44.92413" lon="4.84459">
        <ele>279</ele>
        <time>2000-01-01T02:09:17.000Z</time>
      </trkpt>
      <trkpt lat="44.92415" lon="4.84452">
        <ele>279.6</ele>
        <time>2000-01-01T02:09:27.000Z</time>
      </trkpt>
      <trkpt lat="44.92427" lon="4.84443">
        <ele>279.8</ele>
        <time>2000-01-01T02:09:37.000Z</time>
      </trkpt>
      <trkpt lat="44.92432" lon="4.84438">
        <ele>274</ele>
        <time>2000-01-01T02:09:47.000Z</time>
      </trkpt>
      <trkpt lat="44.92436" lon="4.84428">
        <ele>277.6</ele>
        <time>2000-01-01T02:09:57.000Z</time>
      </trkpt>
      <trkpt lat="44.92437" lon="4.84424">
        <ele>276.7</ele>
        <time>2000-01-01T02:10:07.000Z</time>
      </trkpt>
      <trkpt lat="44.92437" lon="4.84414">
        <ele>274</ele>
        <time>2000-01-01T02:10:17.000Z</time>
      </trkpt>
      <trkpt lat="44.9244" lon="4.84405">
        <ele>268</ele>
        <time>2000-01-01T02:10:27.000Z</time>
      </trkpt>
      <trkpt lat="44.92447" lon="4.84373">
        <ele>264</ele>
        <time>2000-01-01T02:10:37.000Z</time>
      </trkpt>
      <trkpt lat="44.92457" lon="4.84334">
        <ele>259</ele>
        <time>2000-01-01T02:10:47.000Z</time>
      </trkpt>
      <trkpt lat="44.9246" lon="4.84324">
        <ele>259.9</ele>
        <time>2000-01-01T02:10:57.000Z</time>
      </trkpt>
      <trkpt lat="44.92461" lon="4.84316">
        <ele>258.3</ele>
        <time>2000-01-01T02:11:07.000Z</time>
      </trkpt>
      <trkpt lat="44.92461" lon="4.84307">
        <ele>256</ele>
        <time>2000-01-01T02:11:17.000Z</time>
      </trkpt>
      <trkpt lat="44.92462" lon="4.84302">
        <ele>255.6</ele>
        <time>2000-01-01T02:11:27.000Z</time>
      </trkpt>
      <trkpt lat="44.92462" lon="4.84298">
        <ele>255</ele>
        <time>2000-01-01T02:11:37.000Z</time>
      </trkpt>
      <trkpt lat="44.92465" lon="4.84285">
        <ele>253.5</ele>
        <time>2000-01-01T02:11:47.000Z</time>
      </trkpt>
      <trkpt lat="44.92465" lon="4.84276">
        <ele>253</ele>
        <time>2000-01-01T02:11:57.000Z</time>
      </trkpt>
      <trkpt lat="44.92464" lon="4.84271">
        <ele>251.5</ele>
        <time>2000-01-01T02:12:07.000Z</time>
      </trkpt>
      <trkpt lat="44.92464" lon="4.84264">
        <ele>250.7</ele>
        <time>2000-01-01T02:12:17.000Z</time>
      </trkpt>
      <trkpt lat="44.92465" lon="4.84257">
        <ele>250.2</ele>
        <time>2000-01-01T02:12:27.000Z</time>
      </trkpt>
      <trkpt lat="44.92465" lon="4.84253">
        <ele>249.8</ele>
        <time>2000-01-01T02:12:37.000Z</time>
      </trkpt>
      <trkpt lat="44.92462" lon="4.84228">
        <ele>247</ele>
        <time>2000-01-01T02:12:47.000Z</time>
      </trkpt>
      <trkpt lat="44.92462" lon="4.84222">
        <ele>246.5</ele>
        <time>2000-01-01T02:12:57.000Z</time>
      </trkpt>
      <trkpt lat="44.92463" lon="4.84218">
        <ele>246.3</ele>
        <time>2000-01-01T02:13:07.000Z</time>
      </trkpt>
      <trkpt lat="44.92463" lon="4.84216">
        <ele>246.1</ele>
        <time>2000-01-01T02:13:17.000Z</time>
      </trkpt>
      <trkpt lat="44.92462" lon="4.84214">
        <ele>245.7</ele>
        <time>2000-01-01T02:13:27.000Z</time>
      </trkpt>
      <trkpt lat="44.9246" lon="4.84213">
        <ele>245.4</ele>
        <time>2000-01-01T02:13:37.000Z</time>
      </trkpt>
      <trkpt lat="44.92458" lon="4.84213">
        <ele>245.1</ele>
        <time>2000-01-01T02:13:47.000Z</time>
      </trkpt>
      <trkpt lat="44.92455" lon="4.84215">
        <ele>244.9</ele>
        <time>2000-01-01T02:13:57.000Z</time>
      </trkpt>
      <trkpt lat="44.92452" lon="4.84227">
        <ele>245</ele>
        <time>2000-01-01T02:14:07.000Z</time>
      </trkpt>
      <trkpt lat="44.92452" lon="4.84235">
        <ele>245.8</ele>
        <time>2000-01-01T02:14:17.000Z</time>
      </trkpt>
      <trkpt lat="44.92448" lon="4.84255">
        <ele>244</ele>
        <time>2000-01-01T02:14:27.000Z</time>
      </trkpt>
      <trkpt lat="44.92437" lon="4.84275">
        <ele>246.9</ele>
        <time>2000-01-01T02:14:37.000Z</time>
      </trkpt>
      <trkpt lat="44.92429" lon="4.84279">
        <ele>244</ele>
        <time>2000-01-01T02:14:47.000Z</time>
      </trkpt>
      <trkpt lat="44.92422" lon="4.8428">
        <ele>246</ele>
        <time>2000-01-01T02:14:57.000Z</time>
      </trkpt>
      <trkpt lat="44.92418" lon="4.84279">
        <ele>245.4</ele>
        <time>2000-01-01T02:15:07.000Z</time>
      </trkpt>
      <trkpt lat="44.92415" lon="4.84275">
        <ele>245</ele>
        <time>2000-01-01T02:15:17.000Z</time>
      </trkpt>
      <trkpt lat="44.92413" lon="4.8427">
        <ele>243</ele>
        <time>2000-01-01T02:15:27.000Z</time>
      </trkpt>
      <trkpt lat="44.92412" lon="4.84265">
        <ele>244.2</ele>
        <time>2000-01-01T02:15:37.000Z</time>
      </trkpt>
      <trkpt lat="44.92406" lon="4.84245">
        <ele>242.2</ele>
        <time>2000-01-01T02:15:47.000Z</time>
      </trkpt>
      <trkpt lat="44.92403" lon="4.84238">
        <ele>240</ele>
        <time>2000-01-01T02:15:57.000Z</time>
      </trkpt>
      <trkpt lat="44.92394" lon="4.84222">
        <ele>240.4</ele>
        <time>2000-01-01T02:16:07.000Z</time>
      </trkpt>
      <trkpt lat="44.92361" lon="4.84174">
        <ele>240</ele>
        <time>2000-01-01T02:16:17.000Z</time>
      </trkpt>
      <trkpt lat="44.9235" lon="4.84151">
        <ele>240</ele>
        <time>2000-01-01T02:16:27.000Z</time>
      </trkpt>
      <trkpt lat="44.92341" lon="4.84134">
        <ele>240</ele>
        <time>2000-01-01T02:16:37.000Z</time>
      </trkpt>
      <trkpt lat="44.92329" lon="4.84116">
        <ele>240</ele>
        <time>2000-01-01T02:16:47.000Z</time>
      </trkpt>
      <trkpt lat="44.92317" lon="4.84103">
        <ele>239.8</ele>
        <time>2000-01-01T02:16:57.000Z</time>
      </trkpt>
      <trkpt lat="44.92298" lon="4.84089">
        <ele>240</ele>
        <time>2000-01-01T02:17:07.000Z</time>
      </trkpt>
      <trkpt lat="44.92286" lon="4.84081">
        <ele>240.7</ele>
        <time>2000-01-01T02:17:17.000Z</time>
      </trkpt>
      <trkpt lat="44.92275" lon="4.84078">
        <ele>240</ele>
        <time>2000-01-01T02:17:27.000Z</time>
      </trkpt>
      <trkpt lat="44.92265" lon="4.84077">
        <ele>241</ele>
        <time>2000-01-01T02:17:37.000Z</time>
      </trkpt>
      <trkpt lat="44.9224" lon="4.8408">
        <ele>240</ele>
        <time>2000-01-01T02:17:47.000Z</time>
      </trkpt>
      <trkpt lat="44.92231" lon="4.84082">
        <ele>241.9</ele>
        <time>2000-01-01T02:17:57.000Z</time>
      </trkpt>
      <trkpt lat="44.92218" lon="4.84088">
        <ele>240</ele>
        <time>2000-01-01T02:18:07.000Z</time>
      </trkpt>
      <trkpt lat="44.92197" lon="4.84107">
        <ele>240</ele>
        <time>2000-01-01T02:18:17.000Z</time>
      </trkpt>
      <trkpt lat="44.92185" lon="4.84117">
        <ele>243</ele>
        <time>2000-01-01T02:18:27.000Z</time>
      </trkpt>
      <trkpt lat="44.92177" lon="4.84117">
        <ele>240</ele>
        <time>2000-01-01T02:18:37.000Z</time>
      </trkpt>
      <trkpt lat="44.9217" lon="4.84116">
        <ele>242.1</ele>
        <time>2000-01-01T02:18:47.000Z</time>
      </trkpt>
      <trkpt lat="44.92161" lon="4.84117">
        <ele>241.9</ele>
        <time>2000-01-01T02:18:57.000Z</time>
      </trkpt>
      <trkpt lat="44.92153" lon="4.84117">
        <ele>240</ele>
        <time>2000-01-01T02:19:07.000Z</time>
      </trkpt>
      <trkpt lat="44.92149" lon="4.84119">
        <ele>242</ele>
        <time>2000-01-01T02:19:17.000Z</time>
      </trkpt>
      <trkpt lat="44.92145" lon="4.84119">
        <ele>241.9</ele>
        <time>2000-01-01T02:19:27.000Z</time>
      </trkpt>
      <trkpt lat="44.92129" lon="4.84125">
        <ele>240</ele>
        <time>2000-01-01T02:19:37.000Z</time>
      </trkpt>
      <trkpt lat="44.92105" lon="4.8414">
        <ele>242</ele>
        <time>2000-01-01T02:19:47.000Z</time>
      </trkpt>
      <trkpt lat="44.92099" lon="4.8414">
        <ele>244.6</ele>
        <time>2000-01-01T02:19:57.000Z</time>
      </trkpt>
      <trkpt lat="44.92089" lon="4.84137">
        <ele>244.4</ele>
        <time>2000-01-01T02:20:07.000Z</time>
      </trkpt>
      <trkpt lat="44.92082" lon="4.84134">
        <ele>243</ele>
        <time>2000-01-01T02:20:17.000Z</time>
      </trkpt>
      <trkpt lat="44.92049" lon="4.84108">
        <ele>244</ele>
        <time>2000-01-01T02:20:27.000Z</time>
      </trkpt>
      <trkpt lat="44.92035" lon="4.84101">
        <ele>246.4</ele>
        <time>2000-01-01T02:20:37.000Z</time>
      </trkpt>
      <trkpt lat="44.92021" lon="4.841">
        <ele>245</ele>
        <time>2000-01-01T02:20:47.000Z</time>
      </trkpt>
      <trkpt lat="44.92012" lon="4.84103">
        <ele>246.8</ele>
        <time>2000-01-01T02:20:57.000Z</time>
      </trkpt>
      <trkpt lat="44.92" lon="4.84111">
        <ele>246</ele>
        <time>2000-01-01T02:21:07.000Z</time>
      </trkpt>
      <trkpt lat="44.91996" lon="4.84113">
        <ele>247.8</ele>
        <time>2000-01-01T02:21:17.000Z</time>
      </trkpt>
      <trkpt lat="44.91984" lon="4.84122">
        <ele>248.3</ele>
        <time>2000-01-01T02:21:27.000Z</time>
      </trkpt>
      <trkpt lat="44.91949" lon="4.84139">
        <ele>246</ele>
        <time>2000-01-01T02:21:37.000Z</time>
      </trkpt>
      <trkpt lat="44.91942" lon="4.84144">
        <ele>250.5</ele>
        <time>2000-01-01T02:21:47.000Z</time>
      </trkpt>
      <trkpt lat="44.91931" lon="4.84153">
        <ele>246</ele>
        <time>2000-01-01T02:21:57.000Z</time>
      </trkpt>
      <trkpt lat="44.9191" lon="4.84173">
        <ele>247</ele>
        <time>2000-01-01T02:22:07.000Z</time>
      </trkpt>
      <trkpt lat="44.91903" lon="4.84183">
        <ele>252.2</ele>
        <time>2000-01-01T02:22:17.000Z</time>
      </trkpt>
      <trkpt lat="44.91889" lon="4.84197">
        <ele>247</ele>
        <time>2000-01-01T02:22:27.000Z</time>
      </trkpt>
      <trkpt lat="44.91873" lon="4.84212">
        <ele>248</ele>
        <time>2000-01-01T02:22:37.000Z</time>
      </trkpt>
      <trkpt lat="44.91866" lon="4.84217">
        <ele>253.1</ele>
        <time>2000-01-01T02:22:47.000Z</time>
      </trkpt>
      <trkpt lat="44.91861" lon="4.8422">
        <ele>253.3</ele>
        <time>2000-01-01T02:22:57.000Z</time>
      </trkpt>
      <trkpt lat="44.91847" lon="4.84225">
        <ele>250</ele>
        <time>2000-01-01T02:23:07.000Z</time>
      </trkpt>
      <trkpt lat="44.91804" lon="4.84235">
        <ele>252</ele>
        <time>2000-01-01T02:23:17.000Z</time>
      </trkpt>
      <trkpt lat="44.91778" lon="4.84244">
        <ele>252</ele>
        <time>2000-01-01T02:23:27.000Z</time>
      </trkpt>
      <trkpt lat="44.91773" lon="4.8425">
        <ele>254.3</ele>
        <time>2000-01-01T02:23:37.000Z</time>
      </trkpt>
      <trkpt lat="44.91762" lon="4.84267">
        <ele>252</ele>
        <time>2000-01-01T02:23:47.000Z</time>
      </trkpt>
      <trkpt lat="44.9174" lon="4.84299">
        <ele>251</ele>
        <time>2000-01-01T02:23:57.000Z</time>
      </trkpt>
      <trkpt lat="44.91722" lon="4.8432">
        <ele>251</ele>
        <time>2000-01-01T02:24:07.000Z</time>
      </trkpt>
      <trkpt lat="44.9171" lon="4.84331">
        <ele>254</ele>
        <time>2000-01-01T02:24:17.000Z</time>
      </trkpt>
      <trkpt lat="44.91696" lon="4.84346">
        <ele>251</ele>
        <time>2000-01-01T02:24:27.000Z</time>
      </trkpt>
      <trkpt lat="44.91687" lon="4.8436">
        <ele>253</ele>
        <time>2000-01-01T02:24:37.000Z</time>
      </trkpt>
      <trkpt lat="44.91677" lon="4.84386">
        <ele>251</ele>
        <time>2000-01-01T02:24:47.000Z</time>
      </trkpt>
      <trkpt lat="44.91668" lon="4.84406">
        <ele>252.5</ele>
        <time>2000-01-01T02:24:57.000Z</time>
      </trkpt>
      <trkpt lat="44.91663" lon="4.84415">
        <ele>251</ele>
        <time>2000-01-01T02:25:07.000Z</time>
      </trkpt>
      <trkpt lat="44.91661" lon="4.84421">
        <ele>252.5</ele>
        <time>2000-01-01T02:25:17.000Z</time>
      </trkpt>
      <trkpt lat="44.91661" lon="4.84427">
        <ele>252.6</ele>
        <time>2000-01-01T02:25:27.000Z</time>
      </trkpt>
      <trkpt lat="44.91663" lon="4.84431">
        <ele>252.8</ele>
        <time>2000-01-01T02:25:37.000Z</time>
      </trkpt>
      <trkpt lat="44.91667" lon="4.84435">
        <ele>253.1</ele>
        <time>2000-01-01T02:25:47.000Z</time>
      </trkpt>
      <trkpt lat="44.91688" lon="4.84448">
        <ele>254</ele>
        <time>2000-01-01T02:25:57.000Z</time>
      </trkpt>
      <trkpt lat="44.91707" lon="4.84461">
        <ele>256</ele>
        <time>2000-01-01T02:26:07.000Z</time>
      </trkpt>
      <trkpt lat="44.91716" lon="4.84465">
        <ele>259.7</ele>
        <time>2000-01-01T02:26:17.000Z</time>
      </trkpt>
      <trkpt lat="44.9172" lon="4.8447">
        <ele>259.9</ele>
        <time>2000-01-01T02:26:27.000Z</time>
      </trkpt>
      <trkpt lat="44.91726" lon="4.84475">
        <ele>259</ele>
        <time>2000-01-01T02:26:37.000Z</time>
      </trkpt>
      <trkpt lat="44.91736" lon="4.84485">
        <ele>262.3</ele>
        <time>2000-01-01T02:26:47.000Z</time>
      </trkpt>
      <trkpt lat="44.91756" lon="4.84518">
        <ele>262</ele>
        <time>2000-01-01T02:26:57.000Z</time>
      </trkpt>
      <trkpt lat="44.91773" lon="4.84551">
        <ele>265</ele>
        <time>2000-01-01T02:27:07.000Z</time>
      </trkpt>
      <trkpt lat="44.91799" lon="4.846">
        <ele>269</ele>
        <time>2000-01-01T02:27:17.000Z</time>
      </trkpt>
      <trkpt lat="44.9182" lon="4.84638">
        <ele>273</ele>
        <time>2000-01-01T02:27:27.000Z</time>
      </trkpt>
      <trkpt lat="44.9182" lon="4.84642">
        <ele>274.6</ele>
        <time>2000-01-01T02:27:37.000Z</time>
      </trkpt>
      <trkpt lat="44.91819" lon="4.84646">
        <ele>274.5</ele>
        <time>2000-01-01T02:27:47.000Z</time>
      </trkpt>
      <trkpt lat="44.91817" lon="4.8465">
        <ele>274.2</ele>
        <time>2000-01-01T02:27:57.000Z</time>
      </trkpt>
      <trkpt lat="44.91817" lon="4.84657">
        <ele>274.2</ele>
        <time>2000-01-01T02:28:07.000Z</time>
      </trkpt>
      <trkpt lat="44.91816" lon="4.8466">
        <ele>274.1</ele>
        <time>2000-01-01T02:28:17.000Z</time>
      </trkpt>
      <trkpt lat="44.91816" lon="4.84671">
        <ele>271</ele>
        <time>2000-01-01T02:28:27.000Z</time>
      </trkpt>
      <trkpt lat="44.91819" lon="4.8468">
        <ele>272.5</ele>
        <time>2000-01-01T02:28:37.000Z</time>
      </trkpt>
      <trkpt lat="44.91811" lon="4.84688">
        <ele>271</ele>
        <time>2000-01-01T02:28:47.000Z</time>
      </trkpt>
      <trkpt lat="44.91803" lon="4.84694">
        <ele>270</ele>
        <time>2000-01-01T02:28:57.000Z</time>
      </trkpt>
      <trkpt lat="44.91793" lon="4.84698">
        <ele>266.2</ele>
        <time>2000-01-01T02:29:07.000Z</time>
      </trkpt>
      <trkpt lat="44.91786" lon="4.84703">
        <ele>263.6</ele>
        <time>2000-01-01T02:29:17.000Z</time>
      </trkpt>
      <trkpt lat="44.91782" lon="4.84711">
        <ele>260</ele>
        <time>2000-01-01T02:29:27.000Z</time>
      </trkpt>
      <trkpt lat="44.91781" lon="4.84718">
        <ele>259.2</ele>
        <time>2000-01-01T02:29:37.000Z</time>
      </trkpt>
      <trkpt lat="44.91782" lon="4.8473">
        <ele>256.5</ele>
        <time>2000-01-01T02:29:47.000Z</time>
      </trkpt>
      <trkpt lat="44.91782" lon="4.84735">
        <ele>255.4</ele>
        <time>2000-01-01T02:29:57.000Z</time>
      </trkpt>
      <trkpt lat="44.9178" lon="4.84735">
        <ele>258</ele>
        <time>2000-01-01T02:30:07.000Z</time>
      </trkpt>
      <trkpt lat="44.91776" lon="4.84734">
        <ele>254.9</ele>
        <time>2000-01-01T02:30:17.000Z</time>
      </trkpt>
      <trkpt lat="44.91775" lon="4.84733">
        <ele>255.1</ele>
        <time>2000-01-01T02:30:27.000Z</time>
      </trkpt>
      <trkpt lat="44.91773" lon="4.84727">
        <ele>256.6</ele>
        <time>2000-01-01T02:30:37.000Z</time>
      </trkpt>
      <trkpt lat="44.91767" lon="4.84725">
        <ele>256.9</ele>
        <time>2000-01-01T02:30:47.000Z</time>
      </trkpt>
      <trkpt lat="44.91762" lon="4.84726">
        <ele>256</ele>
        <time>2000-01-01T02:30:57.000Z</time>
      </trkpt>
      <trkpt lat="44.91745" lon="4.84736">
        <ele>253.2</ele>
        <time>2000-01-01T02:31:07.000Z</time>
      </trkpt>
      <trkpt lat="44.91737" lon="4.84738">
        <ele>255</ele>
        <time>2000-01-01T02:31:17.000Z</time>
      </trkpt>
      <trkpt lat="44.91728" lon="4.84737">
        <ele>253.5</ele>
        <time>2000-01-01T02:31:27.000Z</time>
      </trkpt>
      <trkpt lat="44.91718" lon="4.84737">
        <ele>253.8</ele>
        <time>2000-01-01T02:31:37.000Z</time>
      </trkpt>
      <trkpt lat="44.91711" lon="4.8474">
        <ele>255</ele>
        <time>2000-01-01T02:31:47.000Z</time>
      </trkpt>
      <trkpt lat="44.91706" lon="4.84744">
        <ele>251.9</ele>
        <time>2000-01-01T02:31:57.000Z</time>
      </trkpt>
      <trkpt lat="44.917" lon="4.84744">
        <ele>251.9</ele>
        <time>2000-01-01T02:32:07.000Z</time>
      </trkpt>
      <trkpt lat="44.91689" lon="4.84743">
        <ele>254</ele>
        <time>2000-01-01T02:32:17.000Z</time>
      </trkpt>
      <trkpt lat="44.91682" lon="4.84741">
        <ele>252.8</ele>
        <time>2000-01-01T02:32:27.000Z</time>
      </trkpt>
      <trkpt lat="44.91674" lon="4.84738">
        <ele>253.6</ele>
        <time>2000-01-01T02:32:37.000Z</time>
      </trkpt>
      <trkpt lat="44.91666" lon="4.84733">
        <ele>254</ele>
        <time>2000-01-01T02:32:47.000Z</time>
      </trkpt>
      <trkpt lat="44.91657" lon="4.84732">
        <ele>254.6</ele>
        <time>2000-01-01T02:32:57.000Z</time>
      </trkpt>
      <trkpt lat="44.91652" lon="4.84733">
        <ele>254</ele>
        <time>2000-01-01T02:33:07.000Z</time>
      </trkpt>
      <trkpt lat="44.91648" lon="4.8473">
        <ele>254.7</ele>
        <time>2000-01-01T02:33:17.000Z</time>
      </trkpt>
      <trkpt lat="44.91625" lon="4.84719">
        <ele>256</ele>
        <time>2000-01-01T02:33:27.000Z</time>
      </trkpt>
      <trkpt lat="44.91603" lon="4.84711">
        <ele>257</ele>
        <time>2000-01-01T02:33:37.000Z</time>
      </trkpt>
      <trkpt lat="44.91595" lon="4.8471">
        <ele>257.9</ele>
        <time>2000-01-01T02:33:47.000Z</time>
      </trkpt>
      <trkpt lat="44.91587" lon="4.84708">
        <ele>257.6</ele>
        <time>2000-01-01T02:33:57.000Z</time>
      </trkpt>
      <trkpt lat="44.91577" lon="4.84707">
        <ele>257</ele>
        <time>2000-01-01T02:34:07.000Z</time>
      </trkpt>
      <trkpt lat="44.9157" lon="4.84703">
        <ele>258</ele>
        <time>2000-01-01T02:34:17.000Z</time>
      </trkpt>
      <trkpt lat="44.91558" lon="4.84708">
        <ele>257</ele>
        <time>2000-01-01T02:34:27.000Z</time>
      </trkpt>
      <trkpt lat="44.91553" lon="4.84708">
        <ele>255</ele>
        <time>2000-01-01T02:34:37.000Z</time>
      </trkpt>
      <trkpt lat="44.91542" lon="4.84706">
        <ele>255.1</ele>
        <time>2000-01-01T02:34:47.000Z</time>
      </trkpt>
      <trkpt lat="44.91537" lon="4.84706">
        <ele>257</ele>
        <time>2000-01-01T02:34:57.000Z</time>
      </trkpt>
      <trkpt lat="44.91534" lon="4.84708">
        <ele>253.9</ele>
        <time>2000-01-01T02:35:07.000Z</time>
      </trkpt>
      <trkpt lat="44.91517" lon="4.84712">
        <ele>256</ele>
        <time>2000-01-01T02:35:17.000Z</time>
      </trkpt>
      <trkpt lat="44.9151" lon="4.84713">
        <ele>252.4</ele>
        <time>2000-01-01T02:35:27.000Z</time>
      </trkpt>
      <trkpt lat="44.91506" lon="4.84719">
        <ele>251.2</ele>
        <time>2000-01-01T02:35:37.000Z</time>
      </trkpt>
      <trkpt lat="44.91504" lon="4.84725">
        <ele>250.4</ele>
        <time>2000-01-01T02:35:47.000Z</time>
      </trkpt>
      <trkpt lat="44.91487" lon="4.84729">
        <ele>255</ele>
        <time>2000-01-01T02:35:57.000Z</time>
      </trkpt>
      <trkpt lat="44.91477" lon="4.84736">
        <ele>252.8</ele>
        <time>2000-01-01T02:36:07.000Z</time>
      </trkpt>
      <trkpt lat="44.91466" lon="4.84752">
        <ele>254</ele>
        <time>2000-01-01T02:36:17.000Z</time>
      </trkpt>
      <trkpt lat="44.9146" lon="4.84766">
        <ele>253</ele>
        <time>2000-01-01T02:36:27.000Z</time>
      </trkpt>
      <trkpt lat="44.91458" lon="4.84776">
        <ele>252.8</ele>
        <time>2000-01-01T02:36:37.000Z</time>
      </trkpt>
      <trkpt lat="44.91453" lon="4.84785">
        <ele>254</ele>
        <time>2000-01-01T02:36:47.000Z</time>
      </trkpt>
      <trkpt lat="44.91443" lon="4.848">
        <ele>254.2</ele>
        <time>2000-01-01T02:36:57.000Z</time>
      </trkpt>
      <trkpt lat="44.91432" lon="4.84804">
        <ele>259</ele>
        <time>2000-01-01T02:37:07.000Z</time>
      </trkpt>
      <trkpt lat="44.91429" lon="4.84804">
        <ele>257.6</ele>
        <time>2000-01-01T02:37:17.000Z</time>
      </trkpt>
      <trkpt lat="44.91424" lon="4.84802">
        <ele>259.1</ele>
        <time>2000-01-01T02:37:27.000Z</time>
      </trkpt>
      <trkpt lat="44.91421" lon="4.84802">
        <ele>259.9</ele>
        <time>2000-01-01T02:37:37.000Z</time>
      </trkpt>
      <trkpt lat="44.91419" lon="4.84801">
        <ele>260.5</ele>
        <time>2000-01-01T02:37:47.000Z</time>
      </trkpt>
      <trkpt lat="44.91416" lon="4.84797">
        <ele>261.3</ele>
        <time>2000-01-01T02:37:57.000Z</time>
      </trkpt>
      <trkpt lat="44.91413" lon="4.8479">
        <ele>259</ele>
        <time>2000-01-01T02:38:07.000Z</time>
      </trkpt>
      <trkpt lat="44.91408" lon="4.84791">
        <ele>261.5</ele>
        <time>2000-01-01T02:38:17.000Z</time>
      </trkpt>
      <trkpt lat="44.91398" lon="4.84791">
        <ele>261.5</ele>
        <time>2000-01-01T02:38:27.000Z</time>
      </trkpt>
      <trkpt lat="44.91397" lon="4.84792">
        <ele>261.5</ele>
        <time>2000-01-01T02:38:37.000Z</time>
      </trkpt>
      <trkpt lat="44.91367" lon="4.84791">
        <ele>260</ele>
        <time>2000-01-01T02:38:47.000Z</time>
      </trkpt>
      <trkpt lat="44.91338" lon="4.84795">
        <ele>261</ele>
        <time>2000-01-01T02:38:57.000Z</time>
      </trkpt>
      <trkpt lat="44.91291" lon="4.84802">
        <ele>263</ele>
        <time>2000-01-01T02:39:07.000Z</time>
      </trkpt>
      <trkpt lat="44.91263" lon="4.84803">
        <ele>265</ele>
        <time>2000-01-01T02:39:17.000Z</time>
      </trkpt>
      <trkpt lat="44.91228" lon="4.84805">
        <ele>266</ele>
        <time>2000-01-01T02:39:27.000Z</time>
      </trkpt>
      <trkpt lat="44.91193" lon="4.84808">
        <ele>268</ele>
        <time>2000-01-01T02:39:37.000Z</time>
      </trkpt>
      <trkpt lat="44.91166" lon="4.8481">
        <ele>268</ele>
        <time>2000-01-01T02:39:47.000Z</time>
      </trkpt>
      <trkpt lat="44.9113" lon="4.84812">
        <ele>266</ele>
        <time>2000-01-01T02:39:57.000Z</time>
      </trkpt>
      <trkpt lat="44.91123" lon="4.84854">
        <ele>265</ele>
        <time>2000-01-01T02:40:07.000Z</time>
      </trkpt>
      <trkpt lat="44.91096" lon="4.84841">
        <ele>261</ele>
        <time>2000-01-01T02:40:17.000Z</time>
      </trkpt>
      <trkpt lat="44.91055" lon="4.8482">
        <ele>261</ele>
        <time>2000-01-01T02:40:27.000Z</time>
      </trkpt>
      <trkpt lat="44.9104" lon="4.84821">
        <ele>258.5</ele>
        <time>2000-01-01T02:40:37.000Z</time>
      </trkpt>
      <trkpt lat="44.91021" lon="4.8484">
        <ele>255</ele>
        <time>2000-01-01T02:40:47.000Z</time>
      </trkpt>
      <trkpt lat="44.90987" lon="4.8487">
        <ele>252</ele>
        <time>2000-01-01T02:40:57.000Z</time>
      </trkpt>
      <trkpt lat="44.90968" lon="4.8489">
        <ele>249</ele>
        <time>2000-01-01T02:41:07.000Z</time>
      </trkpt>
      <trkpt lat="44.90986" lon="4.84906">
        <ele>248</ele>
        <time>2000-01-01T02:41:17.000Z</time>
      </trkpt>
      <trkpt lat="44.91006" lon="4.84912">
        <ele>247</ele>
        <time>2000-01-01T02:41:27.000Z</time>
      </trkpt>
      <trkpt lat="44.91024" lon="4.84912">
        <ele>247.4</ele>
        <time>2000-01-01T02:41:37.000Z</time>
      </trkpt>
      <trkpt lat="44.91044" lon="4.84921">
        <ele>247</ele>
        <time>2000-01-01T02:41:47.000Z</time>
      </trkpt>
      <trkpt lat="44.91065" lon="4.84929">
        <ele>249</ele>
        <time>2000-01-01T02:41:57.000Z</time>
      </trkpt>
      <trkpt lat="44.9108" lon="4.84929">
        <ele>250.5</ele>
        <time>2000-01-01T02:42:07.000Z</time>
      </trkpt>
      <trkpt lat="44.91098" lon="4.84936">
        <ele>251</ele>
        <time>2000-01-01T02:42:17.000Z</time>
      </trkpt>
      <trkpt lat="44.91106" lon="4.84941">
        <ele>252.5</ele>
        <time>2000-01-01T02:42:27.000Z</time>
      </trkpt>
      <trkpt lat="44.91117" lon="4.84946">
        <ele>253</ele>
        <time>2000-01-01T02:42:37.000Z</time>
      </trkpt>
      <trkpt lat="44.91137" lon="4.84954">
        <ele>252</ele>
        <time>2000-01-01T02:42:47.000Z</time>
      </trkpt>
      <trkpt lat="44.91154" lon="4.84963">
        <ele>252</ele>
        <time>2000-01-01T02:42:57.000Z</time>
      </trkpt>
      <trkpt lat="44.91185" lon="4.84974">
        <ele>251</ele>
        <time>2000-01-01T02:43:07.000Z</time>
      </trkpt>
      <trkpt lat="44.91232" lon="4.84984">
        <ele>255</ele>
        <time>2000-01-01T02:43:17.000Z</time>
      </trkpt>
      <trkpt lat="44.91239" lon="4.84961">
        <ele>253.8</ele>
        <time>2000-01-01T02:43:27.000Z</time>
      </trkpt>
      <trkpt lat="44.91246" lon="4.84935">
        <ele>256</ele>
        <time>2000-01-01T02:43:37.000Z</time>
      </trkpt>
      <trkpt lat="44.91246" lon="4.84934">
        <ele>258</ele>
        <time>2000-01-01T02:43:47.000Z</time>
      </trkpt>
      <trkpt lat="44.91259" lon="4.84936">
        <ele>257.9</ele>
        <time>2000-01-01T02:43:57.000Z</time>
      </trkpt>
      <trkpt lat="44.91279" lon="4.8494">
        <ele>257</ele>
        <time>2000-01-01T02:44:07.000Z</time>
      </trkpt>
      <trkpt lat="44.91298" lon="4.84945">
        <ele>257</ele>
        <time>2000-01-01T02:44:17.000Z</time>
      </trkpt>
      <trkpt lat="44.91318" lon="4.84949">
        <ele>256</ele>
        <time>2000-01-01T02:44:27.000Z</time>
      </trkpt>
      <trkpt lat="44.91338" lon="4.84952">
        <ele>255</ele>
        <time>2000-01-01T02:44:37.000Z</time>
      </trkpt>
      <trkpt lat="44.91349" lon="4.84953">
        <ele>253.6</ele>
        <time>2000-01-01T02:44:47.000Z</time>
      </trkpt>
      <trkpt lat="44.91358" lon="4.84955">
        <ele>253</ele>
        <time>2000-01-01T02:44:57.000Z</time>
      </trkpt>
      <trkpt lat="44.91372" lon="4.84955">
        <ele>251</ele>
        <time>2000-01-01T02:45:07.000Z</time>
      </trkpt>
      <trkpt lat="44.91381" lon="4.84973">
        <ele>249</ele>
        <time>2000-01-01T02:45:17.000Z</time>
      </trkpt>
      <trkpt lat="44.91386" lon="4.84996">
        <ele>247.3</ele>
        <time>2000-01-01T02:45:27.000Z</time>
      </trkpt>
      <trkpt lat="44.91387" lon="4.85008">
        <ele>246</ele>
        <time>2000-01-01T02:45:37.000Z</time>
      </trkpt>
      <trkpt lat="44.91402" lon="4.85008">
        <ele>244.9</ele>
        <time>2000-01-01T02:45:47.000Z</time>
      </trkpt>
      <trkpt lat="44.91419" lon="4.85012">
        <ele>244</ele>
        <time>2000-01-01T02:45:57.000Z</time>
      </trkpt>
      <trkpt lat="44.91437" lon="4.8502">
        <ele>239.1</ele>
        <time>2000-01-01T02:46:07.000Z</time>
      </trkpt>
      <trkpt lat="44.91452" lon="4.85032">
        <ele>236</ele>
        <time>2000-01-01T02:46:17.000Z</time>
      </trkpt>
      <trkpt lat="44.91459" lon="4.85044">
        <ele>234.2</ele>
        <time>2000-01-01T02:46:27.000Z</time>
      </trkpt>
      <trkpt lat="44.9147" lon="4.85031">
        <ele>233</ele>
        <time>2000-01-01T02:46:37.000Z</time>
      </trkpt>
      <trkpt lat="44.91487" lon="4.85023">
        <ele>223.4</ele>
        <time>2000-01-01T02:46:47.000Z</time>
      </trkpt>
      <trkpt lat="44.91488" lon="4.85008">
        <ele>223</ele>
        <time>2000-01-01T02:46:57.000Z</time>
      </trkpt>
      <trkpt lat="44.91502" lon="4.85005">
        <ele>217.8</ele>
        <time>2000-01-01T02:47:07.000Z</time>
      </trkpt>
      <trkpt lat="44.9151" lon="4.85004">
        <ele>217</ele>
        <time>2000-01-01T02:47:17.000Z</time>
      </trkpt>
      <trkpt lat="44.9152" lon="4.85004">
        <ele>215.1</ele>
        <time>2000-01-01T02:47:27.000Z</time>
      </trkpt>
      <trkpt lat="44.91537" lon="4.84987">
        <ele>217</ele>
        <time>2000-01-01T02:47:37.000Z</time>
      </trkpt>
      <trkpt lat="44.9154" lon="4.84983">
        <ele>215.9</ele>
        <time>2000-01-01T02:47:47.000Z</time>
      </trkpt>
      <trkpt lat="44.91544" lon="4.84959">
        <ele>216</ele>
        <time>2000-01-01T02:47:57.000Z</time>
      </trkpt>
      <trkpt lat="44.91551" lon="4.84953">
        <ele>217.6</ele>
        <time>2000-01-01T02:48:07.000Z</time>
      </trkpt>
      <trkpt lat="44.91562" lon="4.84946">
        <ele>216</ele>
        <time>2000-01-01T02:48:17.000Z</time>
      </trkpt>
      <trkpt lat="44.91565" lon="4.84947">
        <ele>215.3</ele>
        <time>2000-01-01T02:48:27.000Z</time>
      </trkpt>
      <trkpt lat="44.91567" lon="4.8495">
        <ele>214.5</ele>
        <time>2000-01-01T02:48:37.000Z</time>
      </trkpt>
      <trkpt lat="44.9157" lon="4.84957">
        <ele>213</ele>
        <time>2000-01-01T02:48:47.000Z</time>
      </trkpt>
      <trkpt lat="44.91574" lon="4.84957">
        <ele>212.1</ele>
        <time>2000-01-01T02:48:57.000Z</time>
      </trkpt>
      <trkpt lat="44.9158" lon="4.84951">
        <ele>213</ele>
        <time>2000-01-01T02:49:07.000Z</time>
      </trkpt>
      <trkpt lat="44.91594" lon="4.8494">
        <ele>206.9</ele>
        <time>2000-01-01T02:49:17.000Z</time>
      </trkpt>
      <trkpt lat="44.91598" lon="4.84938">
        <ele>207</ele>
        <time>2000-01-01T02:49:27.000Z</time>
      </trkpt>
      <trkpt lat="44.916" lon="4.84943">
        <ele>204.5</ele>
        <time>2000-01-01T02:49:37.000Z</time>
      </trkpt>
      <trkpt lat="44.91602" lon="4.84954">
        <ele>203.2</ele>
        <time>2000-01-01T02:49:47.000Z</time>
      </trkpt>
      <trkpt lat="44.916" lon="4.84965">
        <ele>207</ele>
        <time>2000-01-01T02:49:57.000Z</time>
      </trkpt>
      <trkpt lat="44.91598" lon="4.8497">
        <ele>203.8</ele>
        <time>2000-01-01T02:50:07.000Z</time>
      </trkpt>
      <trkpt lat="44.91603" lon="4.84979">
        <ele>201.2</ele>
        <time>2000-01-01T02:50:17.000Z</time>
      </trkpt>
      <trkpt lat="44.91607" lon="4.84983">
        <ele>199.5</ele>
        <time>2000-01-01T02:50:27.000Z</time>
      </trkpt>
      <trkpt lat="44.91612" lon="4.84983">
        <ele>199</ele>
        <time>2000-01-01T02:50:37.000Z</time>
      </trkpt>
      <trkpt lat="44.91617" lon="4.84978">
        <ele>196.7</ele>
        <time>2000-01-01T02:50:47.000Z</time>
      </trkpt>
      <trkpt lat="44.91624" lon="4.84966">
        <ele>195.3</ele>
        <time>2000-01-01T02:50:57.000Z</time>
      </trkpt>
      <trkpt lat="44.91627" lon="4.84959">
        <ele>197</ele>
        <time>2000-01-01T02:51:07.000Z</time>
      </trkpt>
      <trkpt lat="44.91632" lon="4.84953">
        <ele>194</ele>
        <time>2000-01-01T02:51:17.000Z</time>
      </trkpt>
      <trkpt lat="44.91634" lon="4.84947">
        <ele>194</ele>
        <time>2000-01-01T02:51:27.000Z</time>
      </trkpt>
      <trkpt lat="44.91637" lon="4.84943">
        <ele>193.8</ele>
        <time>2000-01-01T02:51:37.000Z</time>
      </trkpt>
      <trkpt lat="44.91639" lon="4.84944">
        <ele>193.1</ele>
        <time>2000-01-01T02:51:47.000Z</time>
      </trkpt>
      <trkpt lat="44.91642" lon="4.84949">
        <ele>193</ele>
        <time>2000-01-01T02:51:57.000Z</time>
      </trkpt>
      <trkpt lat="44.91644" lon="4.84955">
        <ele>192.5</ele>
        <time>2000-01-01T02:52:07.000Z</time>
      </trkpt>
      <trkpt lat="44.9165" lon="4.84966">
        <ele>191.4</ele>
        <time>2000-01-01T02:52:17.000Z</time>
      </trkpt>
      <trkpt lat="44.91651" lon="4.84971">
        <ele>190.6</ele>
        <time>2000-01-01T02:52:27.000Z</time>
      </trkpt>
      <trkpt lat="44.91658" lon="4.84977">
        <ele>189</ele>
        <time>2000-01-01T02:52:37.000Z</time>
      </trkpt>
      <trkpt lat="44.91661" lon="4.84981">
        <ele>189.4</ele>
        <time>2000-01-01T02:52:47.000Z</time>
      </trkpt>
      <trkpt lat="44.91664" lon="4.84988">
        <ele>188.2</ele>
        <time>2000-01-01T02:52:57.000Z</time>
      </trkpt>
      <trkpt lat="44.91675" lon="4.85001">
        <ele>187</ele>
        <time>2000-01-01T02:53:07.000Z</time>
      </trkpt>
      <trkpt lat="44.91679" lon="4.85013">
        <ele>185.3</ele>
        <time>2000-01-01T02:53:17.000Z</time>
      </trkpt>
      <trkpt lat="44.91681" lon="4.85016">
        <ele>184.8</ele>
        <time>2000-01-01T02:53:27.000Z</time>
      </trkpt>
      <trkpt lat="44.91681" lon="4.85019">
        <ele>184.1</ele>
        <time>2000-01-01T02:53:37.000Z</time>
      </trkpt>
      <trkpt lat="44.91683" lon="4.85025">
        <ele>184</ele>
        <time>2000-01-01T02:53:47.000Z</time>
      </trkpt>
      <trkpt lat="44.91685" lon="4.85029">
        <ele>182</ele>
        <time>2000-01-01T02:53:57.000Z</time>
      </trkpt>
      <trkpt lat="44.91688" lon="4.85029">
        <ele>182.3</ele>
        <time>2000-01-01T02:54:07.000Z</time>
      </trkpt>
      <trkpt lat="44.91691" lon="4.85036">
        <ele>180.9</ele>
        <time>2000-01-01T02:54:17.000Z</time>
      </trkpt>
      <trkpt lat="44.91692" lon="4.85045">
        <ele>179</ele>
        <time>2000-01-01T02:54:27.000Z</time>
      </trkpt>
      <trkpt lat="44.91694" lon="4.85051">
        <ele>177</ele>
        <time>2000-01-01T02:54:37.000Z</time>
      </trkpt>
      <trkpt lat="44.91702" lon="4.85059">
        <ele>178.3</ele>
        <time>2000-01-01T02:54:47.000Z</time>
      </trkpt>
      <trkpt lat="44.91703" lon="4.85062">
        <ele>178.3</ele>
        <time>2000-01-01T02:54:57.000Z</time>
      </trkpt>
      <trkpt lat="44.91703" lon="4.85066">
        <ele>178</ele>
        <time>2000-01-01T02:55:07.000Z</time>
      </trkpt>
      <trkpt lat="44.91704" lon="4.85069">
        <ele>177.9</ele>
        <time>2000-01-01T02:55:17.000Z</time>
      </trkpt>
      <trkpt lat="44.91704" lon="4.85074">
        <ele>175</ele>
        <time>2000-01-01T02:55:27.000Z</time>
      </trkpt>
      <trkpt lat="44.91698" lon="4.85088">
        <ele>174.2</ele>
        <time>2000-01-01T02:55:37.000Z</time>
      </trkpt>
      <trkpt lat="44.91699" lon="4.85111">
        <ele>170</ele>
        <time>2000-01-01T02:55:47.000Z</time>
      </trkpt>
      <trkpt lat="44.91703" lon="4.85134">
        <ele>168.8</ele>
        <time>2000-01-01T02:55:57.000Z</time>
      </trkpt>
      <trkpt lat="44.91707" lon="4.85148">
        <ele>166</ele>
        <time>2000-01-01T02:56:07.000Z</time>
      </trkpt>
      <trkpt lat="44.91718" lon="4.85163">
        <ele>165.8</ele>
        <time>2000-01-01T02:56:17.000Z</time>
      </trkpt>
      <trkpt lat="44.91735" lon="4.85172">
        <ele>166</ele>
        <time>2000-01-01T02:56:27.000Z</time>
      </trkpt>
      <trkpt lat="44.9175" lon="4.85179">
        <ele>164</ele>
        <time>2000-01-01T02:56:37.000Z</time>
      </trkpt>
      <trkpt lat="44.91792" lon="4.85178">
        <ele>167</ele>
        <time>2000-01-01T02:56:47.000Z</time>
      </trkpt>
      <trkpt lat="44.91797" lon="4.8518">
        <ele>165.5</ele>
        <time>2000-01-01T02:56:57.000Z</time>
      </trkpt>
      <trkpt lat="44.91799" lon="4.85187">
        <ele>164.1</ele>
        <time>2000-01-01T02:57:07.000Z</time>
      </trkpt>
      <trkpt lat="44.91835" lon="4.85158">
        <ele>170</ele>
        <time>2000-01-01T02:57:17.000Z</time>
      </trkpt>
      <trkpt lat="44.91849" lon="4.85159">
        <ele>172.1</ele>
        <time>2000-01-01T02:57:27.000Z</time>
      </trkpt>
      <trkpt lat="44.91888" lon="4.85169">
        <ele>176</ele>
        <time>2000-01-01T02:57:37.000Z</time>
      </trkpt>
      <trkpt lat="44.91922" lon="4.85187">
        <ele>184</ele>
        <time>2000-01-01T02:57:47.000Z</time>
      </trkpt>
      <trkpt lat="44.91936" lon="4.85199">
        <ele>188</ele>
        <time>2000-01-01T02:57:57.000Z</time>
      </trkpt>
      <trkpt lat="44.91943" lon="4.85208">
        <ele>186</ele>
        <time>2000-01-01T02:58:07.000Z</time>
      </trkpt>
      <trkpt lat="44.91953" lon="4.85226">
        <ele>190</ele>
        <time>2000-01-01T02:58:17.000Z</time>
      </trkpt>
      <trkpt lat="44.91963" lon="4.85233">
        <ele>193</ele>
        <time>2000-01-01T02:58:27.000Z</time>
      </trkpt>
      <trkpt lat="44.91969" lon="4.85228">
        <ele>195.7</ele>
        <time>2000-01-01T02:58:37.000Z</time>
      </trkpt>
      <trkpt lat="44.91966" lon="4.85209">
        <ele>194</ele>
        <time>2000-01-01T02:58:47.000Z</time>
      </trkpt>
      <trkpt lat="44.9197" lon="4.85202">
        <ele>199.9</ele>
        <time>2000-01-01T02:58:57.000Z</time>
      </trkpt>
      <trkpt lat="44.91987" lon="4.85198">
        <ele>205</ele>
        <time>2000-01-01T02:59:07.000Z</time>
      </trkpt>
      <trkpt lat="44.91995" lon="4.85185">
        <ele>208.8</ele>
        <time>2000-01-01T02:59:17.000Z</time>
      </trkpt>
      <trkpt lat="44.92007" lon="4.85158">
        <ele>215</ele>
        <time>2000-01-01T02:59:27.000Z</time>
      </trkpt>
      <trkpt lat="44.92008" lon="4.85145">
        <ele>220.5</ele>
        <time>2000-01-01T02:59:37.000Z</time>
      </trkpt>
      <trkpt lat="44.92019" lon="4.85129">
        <ele>226</ele>
        <time>2000-01-01T02:59:47.000Z</time>
      </trkpt>
      <trkpt lat="44.9202" lon="4.85103">
        <ele>232.8</ele>
        <time>2000-01-01T02:59:57.000Z</time>
      </trkpt>
      <trkpt lat="44.92021" lon="4.85091">
        <ele>235</ele>
        <time>2000-01-01T03:00:07.000Z</time>
      </trkpt>
      <trkpt lat="44.92029" lon="4.85079">
        <ele>239.5</ele>
        <time>2000-01-01T03:00:17.000Z</time>
      </trkpt>
      <trkpt lat="44.9203" lon="4.85061">
        <ele>234</ele>
        <time>2000-01-01T03:00:27.000Z</time>
      </trkpt>
      <trkpt lat="44.92028" lon="4.85045">
        <ele>240.6</ele>
        <time>2000-01-01T03:00:37.000Z</time>
      </trkpt>
      <trkpt lat="44.9203" lon="4.85028">
        <ele>234</ele>
        <time>2000-01-01T03:00:47.000Z</time>
      </trkpt>
      <trkpt lat="44.92032" lon="4.85018">
        <ele>240.3</ele>
        <time>2000-01-01T03:00:57.000Z</time>
      </trkpt>
      <trkpt lat="44.92036" lon="4.85011">
        <ele>241.2</ele>
        <time>2000-01-01T03:01:07.000Z</time>
      </trkpt>
      <trkpt lat="44.92035" lon="4.85002">
        <ele>240</ele>
        <time>2000-01-01T03:01:17.000Z</time>
      </trkpt>
      <trkpt lat="44.92035" lon="4.84995">
        <ele>242.3</ele>
        <time>2000-01-01T03:01:27.000Z</time>
      </trkpt>
      <trkpt lat="44.92036" lon="4.84992">
        <ele>243.3</ele>
        <time>2000-01-01T03:01:37.000Z</time>
      </trkpt>
      <trkpt lat="44.92039" lon="4.84994">
        <ele>243.9</ele>
        <time>2000-01-01T03:01:47.000Z</time>
      </trkpt>
      <trkpt lat="44.92041" lon="4.84994">
        <ele>244.6</ele>
        <time>2000-01-01T03:01:57.000Z</time>
      </trkpt>
      <trkpt lat="44.92053" lon="4.85">
        <ele>248</ele>
        <time>2000-01-01T03:02:07.000Z</time>
      </trkpt>
      <trkpt lat="44.92058" lon="4.85001">
        <ele>248.4</ele>
        <time>2000-01-01T03:02:17.000Z</time>
      </trkpt>
      <trkpt lat="44.92063" lon="4.85003">
        <ele>249.1</ele>
        <time>2000-01-01T03:02:27.000Z</time>
      </trkpt>
      <trkpt lat="44.92075" lon="4.85009">
        <ele>252</ele>
        <time>2000-01-01T03:02:37.000Z</time>
      </trkpt>
      <trkpt lat="44.92077" lon="4.85009">
        <ele>250</ele>
        <time>2000-01-01T03:02:47.000Z</time>
      </trkpt>
      <trkpt lat="44.92078" lon="4.85008">
        <ele>250.5</ele>
        <time>2000-01-01T03:02:57.000Z</time>
      </trkpt>
      <trkpt lat="44.92078" lon="4.85006">
        <ele>251.3</ele>
        <time>2000-01-01T03:03:07.000Z</time>
      </trkpt>
      <trkpt lat="44.92075" lon="4.85003">
        <ele>251.8</ele>
        <time>2000-01-01T03:03:17.000Z</time>
      </trkpt>
      <trkpt lat="44.92071" lon="4.84997">
        <ele>252.8</ele>
        <time>2000-01-01T03:03:27.000Z</time>
      </trkpt>
      <trkpt lat="44.92067" lon="4.84993">
        <ele>252.9</ele>
        <time>2000-01-01T03:03:37.000Z</time>
      </trkpt>
      <trkpt lat="44.92063" lon="4.84987">
        <ele>252</ele>
        <time>2000-01-01T03:03:47.000Z</time>
      </trkpt>
      <trkpt lat="44.92062" lon="4.84984">
        <ele>253.9</ele>
        <time>2000-01-01T03:03:57.000Z</time>
      </trkpt>
      <trkpt lat="44.92064" lon="4.84979">
        <ele>255.9</ele>
        <time>2000-01-01T03:04:07.000Z</time>
      </trkpt>
      <trkpt lat="44.92064" lon="4.84975">
        <ele>257</ele>
        <time>2000-01-01T03:04:17.000Z</time>
      </trkpt>
      <trkpt lat="44.9206" lon="4.8497">
        <ele>257</ele>
        <time>2000-01-01T03:04:27.000Z</time>
      </trkpt>
      <trkpt lat="44.92059" lon="4.84966">
        <ele>257.6</ele>
        <time>2000-01-01T03:04:37.000Z</time>
      </trkpt>
      <trkpt lat="44.92059" lon="4.84961">
        <ele>253</ele>
        <time>2000-01-01T03:04:47.000Z</time>
      </trkpt>
      <trkpt lat="44.92061" lon="4.84949">
        <ele>262.3</ele>
        <time>2000-01-01T03:04:57.000Z</time>
      </trkpt>
      <trkpt lat="44.92062" lon="4.84946">
        <ele>263.3</ele>
        <time>2000-01-01T03:05:07.000Z</time>
      </trkpt>
      <trkpt lat="44.92064" lon="4.84943">
        <ele>264.4</ele>
        <time>2000-01-01T03:05:17.000Z</time>
      </trkpt>
      <trkpt lat="44.92064" lon="4.84936">
        <ele>265.9</ele>
        <time>2000-01-01T03:05:27.000Z</time>
      </trkpt>
      <trkpt lat="44.92061" lon="4.84921">
        <ele>259</ele>
        <time>2000-01-01T03:05:37.000Z</time>
      </trkpt>
      <trkpt lat="44.92062" lon="4.84916">
        <ele>268.8</ele>
        <time>2000-01-01T03:05:47.000Z</time>
      </trkpt>
      <trkpt lat="44.92061" lon="4.84912">
        <ele>268.9</ele>
        <time>2000-01-01T03:05:57.000Z</time>
      </trkpt>
      <trkpt lat="44.92059" lon="4.84898">
        <ele>270</ele>
        <time>2000-01-01T03:06:07.000Z</time>
      </trkpt>
      <trkpt lat="44.92055" lon="4.84888">
        <ele>265</ele>
        <time>2000-01-01T03:06:17.000Z</time>
      </trkpt>
      <trkpt lat="44.92054" lon="4.84882">
        <ele>268.4</ele>
        <time>2000-01-01T03:06:27.000Z</time>
      </trkpt>
      <trkpt lat="44.92055" lon="4.84877">
        <ele>269.1</ele>
        <time>2000-01-01T03:06:37.000Z</time>
      </trkpt>
      <trkpt lat="44.92055" lon="4.84871">
        <ele>269.4</ele>
        <time>2000-01-01T03:06:47.000Z</time>
      </trkpt>
      <trkpt lat="44.92057" lon="4.84865">
        <ele>270.9</ele>
        <time>2000-01-01T03:06:57.000Z</time>
      </trkpt>
      <trkpt lat="44.92059" lon="4.84856">
        <ele>267</ele>
        <time>2000-01-01T03:07:07.000Z</time>
      </trkpt>
      <trkpt lat="44.9206" lon="4.84847">
        <ele>273</ele>
        <time>2000-01-01T03:07:17.000Z</time>
      </trkpt>
      <trkpt lat="44.92059" lon="4.84842">
        <ele>272.4</ele>
        <time>2000-01-01T03:07:27.000Z</time>
      </trkpt>
      <trkpt lat="44.92059" lon="4.84839">
        <ele>272.4</ele>
        <time>2000-01-01T03:07:37.000Z</time>
      </trkpt>
      <trkpt lat="44.92057" lon="4.84835">
        <ele>271</ele>
        <time>2000-01-01T03:07:47.000Z</time>
      </trkpt>
      <trkpt lat="44.92057" lon="4.84832">
        <ele>271</ele>
        <time>2000-01-01T03:07:57.000Z</time>
      </trkpt>
      <trkpt lat="44.92058" lon="4.8483">
        <ele>267</ele>
        <time>2000-01-01T03:08:07.000Z</time>
      </trkpt>
      <trkpt lat="44.9206" lon="4.84816">
        <ele>272.8</ele>
        <time>2000-01-01T03:08:17.000Z</time>
      </trkpt>
      <trkpt lat="44.92063" lon="4.84808">
        <ele>274.6</ele>
        <time>2000-01-01T03:08:27.000Z</time>
      </trkpt>
      <trkpt lat="44.92075" lon="4.8476">
        <ele>277</ele>
        <time>2000-01-01T03:08:37.000Z</time>
      </trkpt>
      <trkpt lat="44.92074" lon="4.84758">
        <ele>279.7</ele>
        <time>2000-01-01T03:08:47.000Z</time>
      </trkpt>
      <trkpt lat="44.92076" lon="4.84748">
        <ele>280.4</ele>
        <time>2000-01-01T03:08:57.000Z</time>
      </trkpt>
      <trkpt lat="44.92073" lon="4.84744">
        <ele>279.5</ele>
        <time>2000-01-01T03:09:07.000Z</time>
      </trkpt>
      <trkpt lat="44.92073" lon="4.84742">
        <ele>279.6</ele>
        <time>2000-01-01T03:09:17.000Z</time>
      </trkpt>
      <trkpt lat="44.92075" lon="4.8474">
        <ele>280.3</ele>
        <time>2000-01-01T03:09:27.000Z</time>
      </trkpt>
      <trkpt lat="44.92076" lon="4.84741">
        <ele>280.5</ele>
        <time>2000-01-01T03:09:37.000Z</time>
      </trkpt>
      <trkpt lat="44.92076" lon="4.84738">
        <ele>277</ele>
        <time>2000-01-01T03:09:47.000Z</time>
      </trkpt>
      <trkpt lat="44.92075" lon="4.84735">
        <ele>280.4</ele>
        <time>2000-01-01T03:09:57.000Z</time>
      </trkpt>
      <trkpt lat="44.92075" lon="4.84732">
        <ele>280.5</ele>
        <time>2000-01-01T03:10:07.000Z</time>
      </trkpt>
      <trkpt lat="44.92074" lon="4.84727">
        <ele>280.5</ele>
        <time>2000-01-01T03:10:17.000Z</time>
      </trkpt>
      <trkpt lat="44.92073" lon="4.84725">
        <ele>280.4</ele>
        <time>2000-01-01T03:10:27.000Z</time>
      </trkpt>
      <trkpt lat="44.92071" lon="4.84723">
        <ele>280.2</ele>
        <time>2000-01-01T03:10:37.000Z</time>
      </trkpt>
      <trkpt lat="44.92069" lon="4.84719">
        <ele>280.6</ele>
        <time>2000-01-01T03:10:47.000Z</time>
      </trkpt>
      <trkpt lat="44.92065" lon="4.84714">
        <ele>277</ele>
        <time>2000-01-01T03:10:57.000Z</time>
      </trkpt>
      <trkpt lat="44.92063" lon="4.84713">
        <ele>280.6</ele>
        <time>2000-01-01T03:11:07.000Z</time>
      </trkpt>
      <trkpt lat="44.92062" lon="4.84711">
        <ele>280.7</ele>
        <time>2000-01-01T03:11:17.000Z</time>
      </trkpt>
      <trkpt lat="44.92048" lon="4.84696">
        <ele>278</ele>
        <time>2000-01-01T03:11:27.000Z</time>
      </trkpt>
      <trkpt lat="44.92044" lon="4.8469">
        <ele>279.9</ele>
        <time>2000-01-01T03:11:37.000Z</time>
      </trkpt>
      <trkpt lat="44.92036" lon="4.84683">
        <ele>279.9</ele>
        <time>2000-01-01T03:11:47.000Z</time>
      </trkpt>
      <trkpt lat="44.92024" lon="4.84658">
        <ele>285</ele>
        <time>2000-01-01T03:11:57.000Z</time>
      </trkpt>
      <trkpt lat="44.92021" lon="4.84654">
        <ele>283.9</ele>
        <time>2000-01-01T03:12:07.000Z</time>
      </trkpt>
      <trkpt lat="44.92002" lon="4.84639">
        <ele>287</ele>
        <time>2000-01-01T03:12:17.000Z</time>
      </trkpt>
      <trkpt lat="44.91991" lon="4.84626">
        <ele>289.3</ele>
        <time>2000-01-01T03:12:27.000Z</time>
      </trkpt>
      <trkpt lat="44.91982" lon="4.84618">
        <ele>289</ele>
        <time>2000-01-01T03:12:37.000Z</time>
      </trkpt>
      <trkpt lat="44.91976" lon="4.84611">
        <ele>291</ele>
        <time>2000-01-01T03:12:47.000Z</time>
      </trkpt>
      <trkpt lat="44.9197" lon="4.84602">
        <ele>293.2</ele>
        <time>2000-01-01T03:12:57.000Z</time>
      </trkpt>
      <trkpt lat="44.91958" lon="4.84598">
        <ele>290</ele>
        <time>2000-01-01T03:13:07.000Z</time>
      </trkpt>
      <trkpt lat="44.91949" lon="4.84597">
        <ele>293.8</ele>
        <time>2000-01-01T03:13:17.000Z</time>
      </trkpt>
      <trkpt lat="44.91932" lon="4.84601">
        <ele>290</ele>
        <time>2000-01-01T03:13:27.000Z</time>
      </trkpt>
      <trkpt lat="44.91923" lon="4.84604">
        <ele>289.8</ele>
        <time>2000-01-01T03:13:37.000Z</time>
      </trkpt>
      <trkpt lat="44.91901" lon="4.84608">
        <ele>290</ele>
        <time>2000-01-01T03:13:47.000Z</time>
      </trkpt>
      <trkpt lat="44.9189" lon="4.84608">
        <ele>287.5</ele>
        <time>2000-01-01T03:13:57.000Z</time>
      </trkpt>
      <trkpt lat="44.91884" lon="4.84606">
        <ele>286.9</ele>
        <time>2000-01-01T03:14:07.000Z</time>
      </trkpt>
      <trkpt lat="44.91883" lon="4.84605">
        <ele>286.9</ele>
        <time>2000-01-01T03:14:17.000Z</time>
      </trkpt>
      <trkpt lat="44.91882" lon="4.84602">
        <ele>294</ele>
        <time>2000-01-01T03:14:27.000Z</time>
      </trkpt>
      <trkpt lat="44.91896" lon="4.84592">
        <ele>290.6</ele>
        <time>2000-01-01T03:14:37.000Z</time>
      </trkpt>
      <trkpt lat="44.91926" lon="4.84579">
        <ele>298</ele>
        <time>2000-01-01T03:14:47.000Z</time>
      </trkpt>
      <trkpt lat="44.91932" lon="4.84578">
        <ele>298.3</ele>
        <time>2000-01-01T03:14:57.000Z</time>
      </trkpt>
      <trkpt lat="44.91938" lon="4.84576">
        <ele>299.4</ele>
        <time>2000-01-01T03:15:07.000Z</time>
      </trkpt>
      <trkpt lat="44.91942" lon="4.8457">
        <ele>301.5</ele>
        <time>2000-01-01T03:15:17.000Z</time>
      </trkpt>
      <trkpt lat="44.91944" lon="4.84565">
        <ele>304</ele>
        <time>2000-01-01T03:15:27.000Z</time>
      </trkpt>
      <trkpt lat="44.91944" lon="4.84561">
        <ele>304.3</ele>
        <time>2000-01-01T03:15:37.000Z</time>
      </trkpt>
      <trkpt lat="44.91942" lon="4.8455">
        <ele>306.5</ele>
        <time>2000-01-01T03:15:47.000Z</time>
      </trkpt>
      <trkpt lat="44.9194" lon="4.8453">
        <ele>309</ele>
        <time>2000-01-01T03:15:57.000Z</time>
      </trkpt>
      <trkpt lat="44.9194" lon="4.84524">
        <ele>311.4</ele>
        <time>2000-01-01T03:16:07.000Z</time>
      </trkpt>
      <trkpt lat="44.91939" lon="4.8452">
        <ele>312.5</ele>
        <time>2000-01-01T03:16:17.000Z</time>
      </trkpt>
      <trkpt lat="44.91931" lon="4.84507">
        <ele>311</ele>
        <time>2000-01-01T03:16:27.000Z</time>
      </trkpt>
      <trkpt lat="44.91929" lon="4.845">
        <ele>314.8</ele>
        <time>2000-01-01T03:16:37.000Z</time>
      </trkpt>
      <trkpt lat="44.91928" lon="4.84488">
        <ele>315.8</ele>
        <time>2000-01-01T03:16:47.000Z</time>
      </trkpt>
      <trkpt lat="44.91928" lon="4.84481">
        <ele>316.6</ele>
        <time>2000-01-01T03:16:57.000Z</time>
      </trkpt>
      <trkpt lat="44.91929" lon="4.84472">
        <ele>313</ele>
        <time>2000-01-01T03:17:07.000Z</time>
      </trkpt>
      <trkpt lat="44.91932" lon="4.84457">
        <ele>318.4</ele>
        <time>2000-01-01T03:17:17.000Z</time>
      </trkpt>
      <trkpt lat="44.91939" lon="4.8444">
        <ele>314</ele>
        <time>2000-01-01T03:17:27.000Z</time>
      </trkpt>
      <trkpt lat="44.91941" lon="4.84427">
        <ele>322.1</ele>
        <time>2000-01-01T03:17:37.000Z</time>
      </trkpt>
      <trkpt lat="44.9195" lon="4.84405">
        <ele>324</ele>
        <time>2000-01-01T03:17:47.000Z</time>
      </trkpt>
      <trkpt lat="44.91954" lon="4.84397">
        <ele>327</ele>
        <time>2000-01-01T03:17:57.000Z</time>
      </trkpt>
      <trkpt lat="44.91962" lon="4.84388">
        <ele>328.8</ele>
        <time>2000-01-01T03:18:07.000Z</time>
      </trkpt>
      <trkpt lat="44.91968" lon="4.84384">
        <ele>327</ele>
        <time>2000-01-01T03:18:17.000Z</time>
      </trkpt>
      <trkpt lat="44.91975" lon="4.84382">
        <ele>330.3</ele>
        <time>2000-01-01T03:18:27.000Z</time>
      </trkpt>
      <trkpt lat="44.92008" lon="4.84399">
        <ele>333</ele>
        <time>2000-01-01T03:18:37.000Z</time>
      </trkpt>
      <trkpt lat="44.92039" lon="4.84434">
        <ele>343</ele>
        <time>2000-01-01T03:18:47.000Z</time>
      </trkpt>
      <trkpt lat="44.92047" lon="4.84441">
        <ele>343.9</ele>
        <time>2000-01-01T03:18:57.000Z</time>
      </trkpt>
      <trkpt lat="44.92074" lon="4.84469">
        <ele>346</ele>
        <time>2000-01-01T03:19:07.000Z</time>
      </trkpt>
      <trkpt lat="44.92095" lon="4.84486">
        <ele>351</ele>
        <time>2000-01-01T03:19:17.000Z</time>
      </trkpt>
      <trkpt lat="44.92111" lon="4.84501">
        <ele>354</ele>
        <time>2000-01-01T03:19:27.000Z</time>
      </trkpt>
      <trkpt lat="44.92134" lon="4.84531">
        <ele>360</ele>
        <time>2000-01-01T03:19:37.000Z</time>
      </trkpt>
      <trkpt lat="44.92143" lon="4.84553">
        <ele>365</ele>
        <time>2000-01-01T03:19:47.000Z</time>
      </trkpt>
      <trkpt lat="44.92147" lon="4.84561">
        <ele>366</ele>
        <time>2000-01-01T03:19:57.000Z</time>
      </trkpt>
      <trkpt lat="44.9215" lon="4.84563">
        <ele>366.1</ele>
        <time>2000-01-01T03:20:07.000Z</time>
      </trkpt>
      <trkpt lat="44.92151" lon="4.84565">
        <ele>366.4</ele>
        <time>2000-01-01T03:20:17.000Z</time>
      </trkpt>
      <trkpt lat="44.92151" lon="4.84568">
        <ele>366.7</ele>
        <time>2000-01-01T03:20:27.000Z</time>
      </trkpt>
      <trkpt lat="44.9215" lon="4.8457">
        <ele>367</ele>
        <time>2000-01-01T03:20:37.000Z</time>
      </trkpt>
      <trkpt lat="44.9215" lon="4.84575">
        <ele>367.6</ele>
        <time>2000-01-01T03:20:47.000Z</time>
      </trkpt>
      <trkpt lat="44.92151" lon="4.84577">
        <ele>367.9</ele>
        <time>2000-01-01T03:20:57.000Z</time>
      </trkpt>
      <trkpt lat="44.92151" lon="4.84579">
        <ele>368.2</ele>
        <time>2000-01-01T03:21:07.000Z</time>
      </trkpt>
      <trkpt lat="44.92153" lon="4.84581">
        <ele>368.7</ele>
        <time>2000-01-01T03:21:17.000Z</time>
      </trkpt>
      <trkpt lat="44.92157" lon="4.84588">
        <ele>369</ele>
        <time>2000-01-01T03:21:27.000Z</time>
      </trkpt>
      <trkpt lat="44.92161" lon="4.84591">
        <ele>369.8</ele>
        <time>2000-01-01T03:21:37.000Z</time>
      </trkpt>
      <trkpt lat="44.92166" lon="4.84593">
        <ele>370.9</ele>
        <time>2000-01-01T03:21:47.000Z</time>
      </trkpt>
      <trkpt lat="44.92168" lon="4.84592">
        <ele>371.1</ele>
        <time>2000-01-01T03:21:57.000Z</time>
      </trkpt>
      <trkpt lat="44.92174" lon="4.84592">
        <ele>371.6</ele>
        <time>2000-01-01T03:22:07.000Z</time>
      </trkpt>
      <trkpt lat="44.92191" lon="4.84602">
        <ele>375</ele>
        <time>2000-01-01T03:22:17.000Z</time>
      </trkpt>
      <trkpt lat="44.92197" lon="4.84609">
        <ele>377.6</ele>
        <time>2000-01-01T03:22:27.000Z</time>
      </trkpt>
      <trkpt lat="44.9221" lon="4.84614">
        <ele>378</ele>
        <time>2000-01-01T03:22:37.000Z</time>
      </trkpt>
      <trkpt lat="44.92217" lon="4.84621">
        <ele>380.6</ele>
        <time>2000-01-01T03:22:47.000Z</time>
      </trkpt>
      <trkpt lat="44.9222" lon="4.84622">
        <ele>381.2</ele>
        <time>2000-01-01T03:22:57.000Z</time>
      </trkpt>
      <trkpt lat="44.92223" lon="4.84624">
        <ele>381.7</ele>
        <time>2000-01-01T03:23:07.000Z</time>
      </trkpt>
      <trkpt lat="44.92224" lon="4.84627">
        <ele>382</ele>
        <time>2000-01-01T03:23:17.000Z</time>
      </trkpt>
      <trkpt lat="44.92224" lon="4.8463">
        <ele>381</ele>
        <time>2000-01-01T03:23:27.000Z</time>
      </trkpt>
      <trkpt lat="44.92225" lon="4.84636">
        <ele>383.6</ele>
        <time>2000-01-01T03:23:37.000Z</time>
      </trkpt>
      <trkpt lat="44.92229" lon="4.84641">
        <ele>383.9</ele>
        <time>2000-01-01T03:23:47.000Z</time>
      </trkpt>
      <trkpt lat="44.92232" lon="4.84642">
        <ele>384</ele>
        <time>2000-01-01T03:23:57.000Z</time>
      </trkpt>
      <trkpt lat="44.92236" lon="4.84646">
        <ele>384</ele>
        <time>2000-01-01T03:24:07.000Z</time>
      </trkpt>
      <trkpt lat="44.92238" lon="4.84652">
        <ele>386</ele>
        <time>2000-01-01T03:24:17.000Z</time>
      </trkpt>
      <trkpt lat="44.9224" lon="4.84655">
        <ele>384.3</ele>
        <time>2000-01-01T03:24:27.000Z</time>
      </trkpt>
      <trkpt lat="44.92244" lon="4.84659">
        <ele>385.4</ele>
        <time>2000-01-01T03:24:37.000Z</time>
      </trkpt>
      <trkpt lat="44.92249" lon="4.84666">
        <ele>387.5</ele>
        <time>2000-01-01T03:24:47.000Z</time>
      </trkpt>
      <trkpt lat="44.92251" lon="4.84673">
        <ele>386</ele>
        <time>2000-01-01T03:24:57.000Z</time>
      </trkpt>
      <trkpt lat="44.92254" lon="4.8468">
        <ele>385.5</ele>
        <time>2000-01-01T03:25:07.000Z</time>
      </trkpt>
      <trkpt lat="44.92255" lon="4.84684">
        <ele>384.9</ele>
        <time>2000-01-01T03:25:17.000Z</time>
      </trkpt>
      <trkpt lat="44.92256" lon="4.84692">
        <ele>384</ele>
        <time>2000-01-01T03:25:27.000Z</time>
      </trkpt>
      <trkpt lat="44.92271" lon="4.84729">
        <ele>387</ele>
        <time>2000-01-01T03:25:37.000Z</time>
      </trkpt>
      <trkpt lat="44.92272" lon="4.84733">
        <ele>385.3</ele>
        <time>2000-01-01T03:25:47.000Z</time>
      </trkpt>
      <trkpt lat="44.92276" lon="4.84741">
        <ele>387.2</ele>
        <time>2000-01-01T03:25:57.000Z</time>
      </trkpt>
      <trkpt lat="44.92279" lon="4.84745">
        <ele>388</ele>
        <time>2000-01-01T03:26:07.000Z</time>
      </trkpt>
      <trkpt lat="44.92294" lon="4.8476">
        <ele>388</ele>
        <time>2000-01-01T03:26:17.000Z</time>
      </trkpt>
      <trkpt lat="44.92311" lon="4.84773">
        <ele>388</ele>
        <time>2000-01-01T03:26:27.000Z</time>
      </trkpt>
      <trkpt lat="44.92327" lon="4.84783">
        <ele>387.9</ele>
        <time>2000-01-01T03:26:37.000Z</time>
      </trkpt>
      <trkpt lat="44.92347" lon="4.84798">
        <ele>387</ele>
        <time>2000-01-01T03:26:47.000Z</time>
      </trkpt>
      <trkpt lat="44.92351" lon="4.848">
        <ele>383.1</ele>
        <time>2000-01-01T03:26:57.000Z</time>
      </trkpt>
      <trkpt lat="44.92363" lon="4.84812">
        <ele>379.9</ele>
        <time>2000-01-01T03:27:07.000Z</time>
      </trkpt>
      <trkpt lat="44.92365" lon="4.84813">
        <ele>387</ele>
        <time>2000-01-01T03:27:17.000Z</time>
      </trkpt>
      <trkpt lat="44.92373" lon="4.8482">
        <ele>380.5</ele>
        <time>2000-01-01T03:27:27.000Z</time>
      </trkpt>
      <trkpt lat="44.92384" lon="4.84827">
        <ele>387</ele>
        <time>2000-01-01T03:27:37.000Z</time>
      </trkpt>
      <trkpt lat="44.92392" lon="4.84833">
        <ele>388</ele>
        <time>2000-01-01T03:27:47.000Z</time>
      </trkpt>
      <trkpt lat="44.92395" lon="4.84836">
        <ele>387</ele>
        <time>2000-01-01T03:27:57.000Z</time>
      </trkpt>
      <trkpt lat="44.92402" lon="4.84836">
        <ele>389</ele>
        <time>2000-01-01T03:28:07.000Z</time>
      </trkpt>
      <trkpt lat="44.92423" lon="4.84847">
        <ele>391</ele>
        <time>2000-01-01T03:28:17.000Z</time>
      </trkpt>
      <trkpt lat="44.92429" lon="4.84855">
        <ele>390.2</ele>
        <time>2000-01-01T03:28:27.000Z</time>
      </trkpt>
      <trkpt lat="44.92433" lon="4.84859">
        <ele>392.3</ele>
        <time>2000-01-01T03:28:37.000Z</time>
      </trkpt>
      <trkpt lat="44.92437" lon="4.8486">
        <ele>394.6</ele>
        <time>2000-01-01T03:28:47.000Z</time>
      </trkpt>
      <trkpt lat="44.92443" lon="4.8487">
        <ele>396</ele>
        <time>2000-01-01T03:28:57.000Z</time>
      </trkpt>
      <trkpt lat="44.92451" lon="4.8488">
        <ele>392</ele>
        <time>2000-01-01T03:29:07.000Z</time>
      </trkpt>
      <trkpt lat="44.92454" lon="4.84886">
        <ele>391.4</ele>
        <time>2000-01-01T03:29:17.000Z</time>
      </trkpt>
      <trkpt lat="44.92462" lon="4.84896">
        <ele>391</ele>
        <time>2000-01-01T03:29:27.000Z</time>
      </trkpt>
      <trkpt lat="44.92468" lon="4.84906">
        <ele>390.4</ele>
        <time>2000-01-01T03:29:37.000Z</time>
      </trkpt>
      <trkpt lat="44.92472" lon="4.8491">
        <ele>390.2</ele>
        <time>2000-01-01T03:29:47.000Z</time>
      </trkpt>
      <trkpt lat="44.92474" lon="4.84911">
        <ele>390.6</ele>
        <time>2000-01-01T03:29:57.000Z</time>
      </trkpt>
      <trkpt lat="44.92476" lon="4.84916">
        <ele>387</ele>
        <time>2000-01-01T03:30:07.000Z</time>
      </trkpt>
      <trkpt lat="44.92508" lon="4.84948">
        <ele>387</ele>
        <time>2000-01-01T03:30:17.000Z</time>
      </trkpt>
      <trkpt lat="44.92516" lon="4.84958">
        <ele>387.8</ele>
        <time>2000-01-01T03:30:27.000Z</time>
      </trkpt>
      <trkpt lat="44.92517" lon="4.84962">
        <ele>386.4</ele>
        <time>2000-01-01T03:30:37.000Z</time>
      </trkpt>
      <trkpt lat="44.92519" lon="4.84965">
        <ele>386.1</ele>
        <time>2000-01-01T03:30:47.000Z</time>
      </trkpt>
      <trkpt lat="44.92523" lon="4.84964">
        <ele>386</ele>
        <time>2000-01-01T03:30:57.000Z</time>
      </trkpt>
      <trkpt lat="44.92524" lon="4.84967">
        <ele>387.7</ele>
        <time>2000-01-01T03:31:07.000Z</time>
      </trkpt>
      <trkpt lat="44.92536" lon="4.84981">
        <ele>385.5</ele>
        <time>2000-01-01T03:31:17.000Z</time>
      </trkpt>
      <trkpt lat="44.92539" lon="4.84983">
        <ele>388</ele>
        <time>2000-01-01T03:31:27.000Z</time>
      </trkpt>
      <trkpt lat="44.92548" lon="4.84986">
        <ele>386.2</ele>
        <time>2000-01-01T03:31:37.000Z</time>
      </trkpt>
      <trkpt lat="44.92551" lon="4.84986">
        <ele>386.9</ele>
        <time>2000-01-01T03:31:47.000Z</time>
      </trkpt>
      <trkpt lat="44.92559" lon="4.84988">
        <ele>390</ele>
        <time>2000-01-01T03:31:57.000Z</time>
      </trkpt>
      <trkpt lat="44.92564" lon="4.84988">
        <ele>387.7</ele>
        <time>2000-01-01T03:32:07.000Z</time>
      </trkpt>
      <trkpt lat="44.92566" lon="4.8499">
        <ele>386.6</ele>
        <time>2000-01-01T03:32:17.000Z</time>
      </trkpt>
      <trkpt lat="44.92567" lon="4.8499">
        <ele>386.7</ele>
        <time>2000-01-01T03:32:27.000Z</time>
      </trkpt>
      <trkpt lat="44.92568" lon="4.84989">
        <ele>387.4</ele>
        <time>2000-01-01T03:32:37.000Z</time>
      </trkpt>
      <trkpt lat="44.92575" lon="4.84989">
        <ele>388</ele>
        <time>2000-01-01T03:32:47.000Z</time>
      </trkpt>
      <trkpt lat="44.92576" lon="4.84988">
        <ele>388.7</ele>
        <time>2000-01-01T03:32:57.000Z</time>
      </trkpt>
      <trkpt lat="44.92588" lon="4.84988">
        <ele>391</ele>
        <time>2000-01-01T03:33:07.000Z</time>
      </trkpt>
      <trkpt lat="44.92597" lon="4.8499">
        <ele>389</ele>
        <time>2000-01-01T03:33:17.000Z</time>
      </trkpt>
      <trkpt lat="44.92613" lon="4.84991">
        <ele>393</ele>
        <time>2000-01-01T03:33:27.000Z</time>
      </trkpt>
      <trkpt lat="44.9262" lon="4.84989">
        <ele>389.2</ele>
        <time>2000-01-01T03:33:37.000Z</time>
      </trkpt>
      <trkpt lat="44.92627" lon="4.84984">
        <ele>390.4</ele>
        <time>2000-01-01T03:33:47.000Z</time>
      </trkpt>
      <trkpt lat="44.92631" lon="4.84977">
        <ele>393</ele>
        <time>2000-01-01T03:33:57.000Z</time>
      </trkpt>
      <trkpt lat="44.92638" lon="4.84967">
        <ele>394.3</ele>
        <time>2000-01-01T03:34:07.000Z</time>
      </trkpt>
      <trkpt lat="44.92643" lon="4.84963">
        <ele>393.3</ele>
        <time>2000-01-01T03:34:17.000Z</time>
      </trkpt>
      <trkpt lat="44.92652" lon="4.8496">
        <ele>393</ele>
        <time>2000-01-01T03:34:27.000Z</time>
      </trkpt>
      <trkpt lat="44.92654" lon="4.8496">
        <ele>390.8</ele>
        <time>2000-01-01T03:34:37.000Z</time>
      </trkpt>
      <trkpt lat="44.92664" lon="4.8495">
        <ele>389.7</ele>
        <time>2000-01-01T03:34:47.000Z</time>
      </trkpt>
      <trkpt lat="44.92667" lon="4.84946">
        <ele>389.7</ele>
        <time>2000-01-01T03:34:57.000Z</time>
      </trkpt>
      <trkpt lat="44.92675" lon="4.84939">
        <ele>391</ele>
        <time>2000-01-01T03:35:07.000Z</time>
      </trkpt>
      <trkpt lat="44.92678" lon="4.84938">
        <ele>389.6</ele>
        <time>2000-01-01T03:35:17.000Z</time>
      </trkpt>
      <trkpt lat="44.9268" lon="4.84936">
        <ele>389.6</ele>
        <time>2000-01-01T03:35:27.000Z</time>
      </trkpt>
      <trkpt lat="44.92698" lon="4.84932">
        <ele>389</ele>
        <time>2000-01-01T03:35:37.000Z</time>
      </trkpt>
      <trkpt lat="44.92719" lon="4.84925">
        <ele>387</ele>
        <time>2000-01-01T03:35:47.000Z</time>
      </trkpt>
      <trkpt lat="44.92721" lon="4.84925">
        <ele>384.8</ele>
        <time>2000-01-01T03:35:57.000Z</time>
      </trkpt>
      <trkpt lat="44.92724" lon="4.84927">
        <ele>385.1</ele>
        <time>2000-01-01T03:36:07.000Z</time>
      </trkpt>
      <trkpt lat="44.92728" lon="4.84927">
        <ele>385.9</ele>
        <time>2000-01-01T03:36:17.000Z</time>
      </trkpt>
      <trkpt lat="44.92733" lon="4.84926">
        <ele>387</ele>
        <time>2000-01-01T03:36:27.000Z</time>
      </trkpt>
      <trkpt lat="44.92736" lon="4.84923">
        <ele>387.7</ele>
        <time>2000-01-01T03:36:37.000Z</time>
      </trkpt>
      <trkpt lat="44.9274" lon="4.84921">
        <ele>387</ele>
        <time>2000-01-01T03:36:47.000Z</time>
      </trkpt>
      <trkpt lat="44.92745" lon="4.8492">
        <ele>390.2</ele>
        <time>2000-01-01T03:36:57.000Z</time>
      </trkpt>
      <trkpt lat="44.92749" lon="4.84921">
        <ele>391.1</ele>
        <time>2000-01-01T03:37:07.000Z</time>
      </trkpt>
      <trkpt lat="44.92756" lon="4.84917">
        <ele>391.7</ele>
        <time>2000-01-01T03:37:17.000Z</time>
      </trkpt>
      <trkpt lat="44.92758" lon="4.84914">
        <ele>391</ele>
        <time>2000-01-01T03:37:27.000Z</time>
      </trkpt>
      <trkpt lat="44.9276" lon="4.84915">
        <ele>391.6</ele>
        <time>2000-01-01T03:37:37.000Z</time>
      </trkpt>
      <trkpt lat="44.92762" lon="4.84913">
        <ele>391.6</ele>
        <time>2000-01-01T03:37:47.000Z</time>
      </trkpt>
      <trkpt lat="44.92763" lon="4.84909">
        <ele>391.6</ele>
        <time>2000-01-01T03:37:57.000Z</time>
      </trkpt>
      <trkpt lat="44.92766" lon="4.84905">
        <ele>391.7</ele>
        <time>2000-01-01T03:38:07.000Z</time>
      </trkpt>
      <trkpt lat="44.9277" lon="4.84902">
        <ele>391.9</ele>
        <time>2000-01-01T03:38:17.000Z</time>
      </trkpt>
      <trkpt lat="44.92773" lon="4.84901">
        <ele>391</ele>
        <time>2000-01-01T03:38:27.000Z</time>
      </trkpt>
      <trkpt lat="44.92777" lon="4.84901">
        <ele>392.1</ele>
        <time>2000-01-01T03:38:37.000Z</time>
      </trkpt>
      <trkpt lat="44.92797" lon="4.84905">
        <ele>391</ele>
        <time>2000-01-01T03:38:47.000Z</time>
      </trkpt>
      <trkpt lat="44.92801" lon="4.84908">
        <ele>390.6</ele>
        <time>2000-01-01T03:38:57.000Z</time>
      </trkpt>
      <trkpt lat="44.92806" lon="4.84909">
        <ele>390.4</ele>
        <time>2000-01-01T03:39:07.000Z</time>
      </trkpt>
      <trkpt lat="44.92809" lon="4.84911">
        <ele>390.5</ele>
        <time>2000-01-01T03:39:17.000Z</time>
      </trkpt>
      <trkpt lat="44.92817" lon="4.84913">
        <ele>391</ele>
        <time>2000-01-01T03:39:27.000Z</time>
      </trkpt>
      <trkpt lat="44.92851" lon="4.84925">
        <ele>389</ele>
        <time>2000-01-01T03:39:37.000Z</time>
      </trkpt>
      <trkpt lat="44.9286" lon="4.84927">
        <ele>387.6</ele>
        <time>2000-01-01T03:39:47.000Z</time>
      </trkpt>
      <trkpt lat="44.92866" lon="4.84927">
        <ele>386.7</ele>
        <time>2000-01-01T03:39:57.000Z</time>
      </trkpt>
      <trkpt lat="44.92878" lon="4.84929">
        <ele>385</ele>
        <time>2000-01-01T03:40:07.000Z</time>
      </trkpt>
      <trkpt lat="44.92886" lon="4.84929">
        <ele>383.8</ele>
        <time>2000-01-01T03:40:17.000Z</time>
      </trkpt>
      <trkpt lat="44.92899" lon="4.84926">
        <ele>382</ele>
        <time>2000-01-01T03:40:27.000Z</time>
      </trkpt>
      <trkpt lat="44.92909" lon="4.8492">
        <ele>379.3</ele>
        <time>2000-01-01T03:40:37.000Z</time>
      </trkpt>
      <trkpt lat="44.92917" lon="4.84917">
        <ele>378</ele>
        <time>2000-01-01T03:40:47.000Z</time>
      </trkpt>
      <trkpt lat="44.92958" lon="4.84919">
        <ele>376</ele>
        <time>2000-01-01T03:40:57.000Z</time>
      </trkpt>
      <trkpt lat="44.92979" lon="4.84922">
        <ele>374</ele>
        <time>2000-01-01T03:41:07.000Z</time>
      </trkpt>
      <trkpt lat="44.92999" lon="4.84921">
        <ele>373</ele>
        <time>2000-01-01T03:41:17.000Z</time>
      </trkpt>
      <trkpt lat="44.93036" lon="4.84915">
        <ele>372</ele>
        <time>2000-01-01T03:41:27.000Z</time>
      </trkpt>
      <trkpt lat="44.93042" lon="4.84916">
        <ele>370.2</ele>
        <time>2000-01-01T03:41:37.000Z</time>
      </trkpt>
      <trkpt lat="44.93061" lon="4.84928">
        <ele>371</ele>
        <time>2000-01-01T03:41:47.000Z</time>
      </trkpt>
      <trkpt lat="44.93077" lon="4.84935">
        <ele>368.5</ele>
        <time>2000-01-01T03:41:57.000Z</time>
      </trkpt>
      <trkpt lat="44.93083" lon="4.84937">
        <ele>371</ele>
        <time>2000-01-01T03:42:07.000Z</time>
      </trkpt>
      <trkpt lat="44.93125" lon="4.84947">
        <ele>371</ele>
        <time>2000-01-01T03:42:17.000Z</time>
      </trkpt>
      <trkpt lat="44.93133" lon="4.84955">
        <ele>367.5</ele>
        <time>2000-01-01T03:42:27.000Z</time>
      </trkpt>
      <trkpt lat="44.9314" lon="4.8496">
        <ele>367.9</ele>
        <time>2000-01-01T03:42:37.000Z</time>
      </trkpt>
      <trkpt lat="44.93175" lon="4.84969">
        <ele>371</ele>
        <time>2000-01-01T03:42:47.000Z</time>
      </trkpt>
      <trkpt lat="44.93192" lon="4.84976">
        <ele>374.6</ele>
        <time>2000-01-01T03:42:57.000Z</time>
      </trkpt>
      <trkpt lat="44.932" lon="4.84981">
        <ele>375</ele>
        <time>2000-01-01T03:43:07.000Z</time>
      </trkpt>
      <trkpt lat="44.93217" lon="4.84988">
        <ele>379.6</ele>
        <time>2000-01-01T03:43:17.000Z</time>
      </trkpt>
      <trkpt lat="44.93221" lon="4.84992">
        <ele>380</ele>
        <time>2000-01-01T03:43:27.000Z</time>
      </trkpt>
      <trkpt lat="44.93223" lon="4.84996">
        <ele>381.6</ele>
        <time>2000-01-01T03:43:37.000Z</time>
      </trkpt>
      <trkpt lat="44.93227" lon="4.85007">
        <ele>382.5</ele>
        <time>2000-01-01T03:43:47.000Z</time>
      </trkpt>
      <trkpt lat="44.93233" lon="4.85019">
        <ele>382</ele>
        <time>2000-01-01T03:43:57.000Z</time>
      </trkpt>
      <trkpt lat="44.93242" lon="4.85025">
        <ele>384.4</ele>
        <time>2000-01-01T03:44:07.000Z</time>
      </trkpt>
      <trkpt lat="44.93249" lon="4.85031">
        <ele>385.2</ele>
        <time>2000-01-01T03:44:17.000Z</time>
      </trkpt>
      <trkpt lat="44.93253" lon="4.85036">
        <ele>385</ele>
        <time>2000-01-01T03:44:27.000Z</time>
      </trkpt>
      <trkpt lat="44.9326" lon="4.8504">
        <ele>385</ele>
        <time>2000-01-01T03:44:37.000Z</time>
      </trkpt>
      <trkpt lat="44.93266" lon="4.8504">
        <ele>384.5</ele>
        <time>2000-01-01T03:44:47.000Z</time>
      </trkpt>
      <trkpt lat="44.93276" lon="4.85042">
        <ele>386</ele>
        <time>2000-01-01T03:44:57.000Z</time>
      </trkpt>
      <trkpt lat="44.93279" lon="4.85046">
        <ele>383.3</ele>
        <time>2000-01-01T03:45:07.000Z</time>
      </trkpt>
      <trkpt lat="44.93282" lon="4.85048">
        <ele>382.9</ele>
        <time>2000-01-01T03:45:17.000Z</time>
      </trkpt>
      <trkpt lat="44.93299" lon="4.85051">
        <ele>386</ele>
        <time>2000-01-01T03:45:27.000Z</time>
      </trkpt>
      <trkpt lat="44.93324" lon="4.85051">
        <ele>386</ele>
        <time>2000-01-01T03:45:37.000Z</time>
      </trkpt>
      <trkpt lat="44.93355" lon="4.85047">
        <ele>385</ele>
        <time>2000-01-01T03:45:47.000Z</time>
      </trkpt>
      <trkpt lat="44.9336" lon="4.85043">
        <ele>384</ele>
        <time>2000-01-01T03:45:57.000Z</time>
      </trkpt>
      <trkpt lat="44.93367" lon="4.85041">
        <ele>383.9</ele>
        <time>2000-01-01T03:46:07.000Z</time>
      </trkpt>
      <trkpt lat="44.93375" lon="4.8504">
        <ele>383</ele>
        <time>2000-01-01T03:46:17.000Z</time>
      </trkpt>
      <trkpt lat="44.93383" lon="4.8504">
        <ele>383.5</ele>
        <time>2000-01-01T03:46:27.000Z</time>
      </trkpt>
      <trkpt lat="44.93398" lon="4.85029">
        <ele>381</ele>
        <time>2000-01-01T03:46:37.000Z</time>
      </trkpt>
      <trkpt lat="44.93425" lon="4.8503">
        <ele>378</ele>
        <time>2000-01-01T03:46:47.000Z</time>
      </trkpt>
      <trkpt lat="44.93432" lon="4.85028">
        <ele>377.8</ele>
        <time>2000-01-01T03:46:57.000Z</time>
      </trkpt>
      <trkpt lat="44.93441" lon="4.85028">
        <ele>376.5</ele>
        <time>2000-01-01T03:47:07.000Z</time>
      </trkpt>
      <trkpt lat="44.93449" lon="4.85031">
        <ele>377</ele>
        <time>2000-01-01T03:47:17.000Z</time>
      </trkpt>
      <trkpt lat="44.93462" lon="4.85034">
        <ele>372.8</ele>
        <time>2000-01-01T03:47:27.000Z</time>
      </trkpt>
      <trkpt lat="44.93469" lon="4.85038">
        <ele>373</ele>
        <time>2000-01-01T03:47:37.000Z</time>
      </trkpt>
      <trkpt lat="44.93486" lon="4.85043">
        <ele>371.9</ele>
        <time>2000-01-01T03:47:47.000Z</time>
      </trkpt>
      <trkpt lat="44.93489" lon="4.85046">
        <ele>375</ele>
        <time>2000-01-01T03:47:57.000Z</time>
      </trkpt>
      <trkpt lat="44.93491" lon="4.85059">
        <ele>375.2</ele>
        <time>2000-01-01T03:48:07.000Z</time>
      </trkpt>
      <trkpt lat="44.93494" lon="4.85065">
        <ele>375.5</ele>
        <time>2000-01-01T03:48:17.000Z</time>
      </trkpt>
      <trkpt lat="44.93499" lon="4.85072">
        <ele>378</ele>
        <time>2000-01-01T03:48:27.000Z</time>
      </trkpt>
      <trkpt lat="44.93501" lon="4.85077">
        <ele>379.1</ele>
        <time>2000-01-01T03:48:37.000Z</time>
      </trkpt>
      <trkpt lat="44.93505" lon="4.85082">
        <ele>380</ele>
        <time>2000-01-01T03:48:47.000Z</time>
      </trkpt>
      <trkpt lat="44.9351" lon="4.85095">
        <ele>380</ele>
        <time>2000-01-01T03:48:57.000Z</time>
      </trkpt>
      <trkpt lat="44.93516" lon="4.85105">
        <ele>368.1</ele>
        <time>2000-01-01T03:49:07.000Z</time>
      </trkpt>
      <trkpt lat="44.9352" lon="4.85113">
        <ele>369.5</ele>
        <time>2000-01-01T03:49:17.000Z</time>
      </trkpt>
      <trkpt lat="44.93522" lon="4.85114">
        <ele>372.1</ele>
        <time>2000-01-01T03:49:27.000Z</time>
      </trkpt>
      <trkpt lat="44.9353" lon="4.85122">
        <ele>379</ele>
        <time>2000-01-01T03:49:37.000Z</time>
      </trkpt>
      <trkpt lat="44.93538" lon="4.85122">
        <ele>371.2</ele>
        <time>2000-01-01T03:49:47.000Z</time>
      </trkpt>
      <trkpt lat="44.93548" lon="4.85116">
        <ele>372.7</ele>
        <time>2000-01-01T03:49:57.000Z</time>
      </trkpt>
      <trkpt lat="44.93554" lon="4.85109">
        <ele>379</ele>
        <time>2000-01-01T03:50:07.000Z</time>
      </trkpt>
      <trkpt lat="44.93562" lon="4.85105">
        <ele>378.3</ele>
        <time>2000-01-01T03:50:17.000Z</time>
      </trkpt>
      <trkpt lat="44.93566" lon="4.85105">
        <ele>377.8</ele>
        <time>2000-01-01T03:50:27.000Z</time>
      </trkpt>
      <trkpt lat="44.9357" lon="4.85104">
        <ele>377.3</ele>
        <time>2000-01-01T03:50:37.000Z</time>
      </trkpt>
      <trkpt lat="44.93577" lon="4.85106">
        <ele>377</ele>
        <time>2000-01-01T03:50:47.000Z</time>
      </trkpt>
      <trkpt lat="44.93595" lon="4.85118">
        <ele>374</ele>
        <time>2000-01-01T03:50:57.000Z</time>
      </trkpt>
      <trkpt lat="44.93606" lon="4.85129">
        <ele>368</ele>
        <time>2000-01-01T03:51:07.000Z</time>
      </trkpt>
      <trkpt lat="44.93616" lon="4.85134">
        <ele>370</ele>
        <time>2000-01-01T03:51:17.000Z</time>
      </trkpt>
      <trkpt lat="44.93623" lon="4.8514">
        <ele>365.6</ele>
        <time>2000-01-01T03:51:27.000Z</time>
      </trkpt>
      <trkpt lat="44.93632" lon="4.85145">
        <ele>359.1</ele>
        <time>2000-01-01T03:51:37.000Z</time>
      </trkpt>
      <trkpt lat="44.9364" lon="4.85146">
        <ele>367</ele>
        <time>2000-01-01T03:51:47.000Z</time>
      </trkpt>
      <trkpt lat="44.93648" lon="4.8515">
        <ele>356.9</ele>
        <time>2000-01-01T03:51:57.000Z</time>
      </trkpt>
      <trkpt lat="44.93657" lon="4.85152">
        <ele>357.3</ele>
        <time>2000-01-01T03:52:07.000Z</time>
      </trkpt>
      <trkpt lat="44.93666" lon="4.85151">
        <ele>363</ele>
        <time>2000-01-01T03:52:17.000Z</time>
      </trkpt>
      <trkpt lat="44.93674" lon="4.85149">
        <ele>356.8</ele>
        <time>2000-01-01T03:52:27.000Z</time>
      </trkpt>
      <trkpt lat="44.93678" lon="4.85147">
        <ele>355.9</ele>
        <time>2000-01-01T03:52:37.000Z</time>
      </trkpt>
      <trkpt lat="44.93682" lon="4.85146">
        <ele>355</ele>
        <time>2000-01-01T03:52:47.000Z</time>
      </trkpt>
      <trkpt lat="44.93691" lon="4.85145">
        <ele>355</ele>
        <time>2000-01-01T03:52:57.000Z</time>
      </trkpt>
      <trkpt lat="44.9371" lon="4.8514">
        <ele>351</ele>
        <time>2000-01-01T03:53:07.000Z</time>
      </trkpt>
      <trkpt lat="44.93714" lon="4.8514">
        <ele>351.6</ele>
        <time>2000-01-01T03:53:17.000Z</time>
      </trkpt>
      <trkpt lat="44.93729" lon="4.85143">
        <ele>351</ele>
        <time>2000-01-01T03:53:27.000Z</time>
      </trkpt>
      <trkpt lat="44.93737" lon="4.85147">
        <ele>346.6</ele>
        <time>2000-01-01T03:53:37.000Z</time>
      </trkpt>
      <trkpt lat="44.93762" lon="4.85156">
        <ele>345</ele>
        <time>2000-01-01T03:53:47.000Z</time>
      </trkpt>
      <trkpt lat="44.93778" lon="4.85163">
        <ele>336.6</ele>
        <time>2000-01-01T03:53:57.000Z</time>
      </trkpt>
      <trkpt lat="44.9379" lon="4.85171">
        <ele>335</ele>
        <time>2000-01-01T03:54:07.000Z</time>
      </trkpt>
      <trkpt lat="44.93794" lon="4.85173">
        <ele>325.1</ele>
        <time>2000-01-01T03:54:17.000Z</time>
      </trkpt>
      <trkpt lat="44.93798" lon="4.85177">
        <ele>321.6</ele>
        <time>2000-01-01T03:54:27.000Z</time>
      </trkpt>
      <trkpt lat="44.93813" lon="4.85186">
        <ele>324</ele>
        <time>2000-01-01T03:54:37.000Z</time>
      </trkpt>
      <trkpt lat="44.93818" lon="4.85192">
        <ele>315.8</ele>
        <time>2000-01-01T03:54:47.000Z</time>
      </trkpt>
      <trkpt lat="44.93826" lon="4.852">
        <ele>317.4</ele>
        <time>2000-01-01T03:54:57.000Z</time>
      </trkpt>
      <trkpt lat="44.93829" lon="4.85199">
        <ele>321</ele>
        <time>2000-01-01T03:55:07.000Z</time>
      </trkpt>
      <trkpt lat="44.93842" lon="4.85198">
        <ele>318.1</ele>
        <time>2000-01-01T03:55:17.000Z</time>
      </trkpt>
      <trkpt lat="44.93849" lon="4.852">
        <ele>322</ele>
        <time>2000-01-01T03:55:27.000Z</time>
      </trkpt>
      <trkpt lat="44.93853" lon="4.85203">
        <ele>319.4</ele>
        <time>2000-01-01T03:55:37.000Z</time>
      </trkpt>
      <trkpt lat="44.93855" lon="4.85206">
        <ele>320.8</ele>
        <time>2000-01-01T03:55:47.000Z</time>
      </trkpt>
      <trkpt lat="44.93856" lon="4.8521">
        <ele>322.9</ele>
        <time>2000-01-01T03:55:57.000Z</time>
      </trkpt>
      <trkpt lat="44.93859" lon="4.85211">
        <ele>323.5</ele>
        <time>2000-01-01T03:56:07.000Z</time>
      </trkpt>
      <trkpt lat="44.93867" lon="4.85212">
        <ele>320</ele>
        <time>2000-01-01T03:56:17.000Z</time>
      </trkpt>
      <trkpt lat="44.9387" lon="4.85215">
        <ele>323.1</ele>
        <time>2000-01-01T03:56:27.000Z</time>
      </trkpt>
      <trkpt lat="44.93874" lon="4.85216">
        <ele>322.3</ele>
        <time>2000-01-01T03:56:37.000Z</time>
      </trkpt>
      <trkpt lat="44.93882" lon="4.85224">
        <ele>322.6</ele>
        <time>2000-01-01T03:56:47.000Z</time>
      </trkpt>
      <trkpt lat="44.93891" lon="4.85224">
        <ele>318</ele>
        <time>2000-01-01T03:56:57.000Z</time>
      </trkpt>
      <trkpt lat="44.93898" lon="4.85231">
        <ele>315.8</ele>
        <time>2000-01-01T03:57:07.000Z</time>
      </trkpt>
      <trkpt lat="44.93899" lon="4.85234">
        <ele>315.4</ele>
        <time>2000-01-01T03:57:17.000Z</time>
      </trkpt>
      <trkpt lat="44.93899" lon="4.85238">
        <ele>315.4</ele>
        <time>2000-01-01T03:57:27.000Z</time>
      </trkpt>
      <trkpt lat="44.93901" lon="4.85242">
        <ele>314.4</ele>
        <time>2000-01-01T03:57:37.000Z</time>
      </trkpt>
      <trkpt lat="44.93901" lon="4.85258">
        <ele>315</ele>
        <time>2000-01-01T03:57:47.000Z</time>
      </trkpt>
      <trkpt lat="44.93899" lon="4.85266">
        <ele>308.6</ele>
        <time>2000-01-01T03:57:57.000Z</time>
      </trkpt>
      <trkpt lat="44.93899" lon="4.85272">
        <ele>306</ele>
        <time>2000-01-01T03:58:07.000Z</time>
      </trkpt>
      <trkpt lat="44.939" lon="4.85273">
        <ele>305.4</ele>
        <time>2000-01-01T03:58:17.000Z</time>
      </trkpt>
      <trkpt lat="44.93902" lon="4.8527">
        <ele>306.1</ele>
        <time>2000-01-01T03:58:27.000Z</time>
      </trkpt>
      <trkpt lat="44.93903" lon="4.85263">
        <ele>314</ele>
        <time>2000-01-01T03:58:37.000Z</time>
      </trkpt>
      <trkpt lat="44.93904" lon="4.8526">
        <ele>309.2</ele>
        <time>2000-01-01T03:58:47.000Z</time>
      </trkpt>
      <trkpt lat="44.93906" lon="4.85256">
        <ele>309.8</ele>
        <time>2000-01-01T03:58:57.000Z</time>
      </trkpt>
      <trkpt lat="44.93913" lon="4.85247">
        <ele>308.1</ele>
        <time>2000-01-01T03:59:07.000Z</time>
      </trkpt>
      <trkpt lat="44.93916" lon="4.8524">
        <ele>312</ele>
        <time>2000-01-01T03:59:17.000Z</time>
      </trkpt>
      <trkpt lat="44.93917" lon="4.85242">
        <ele>306.1</ele>
        <time>2000-01-01T03:59:27.000Z</time>
      </trkpt>
      <trkpt lat="44.93917" lon="4.85245">
        <ele>306</ele>
        <time>2000-01-01T03:59:37.000Z</time>
      </trkpt>
      <trkpt lat="44.93918" lon="4.85248">
        <ele>305.2</ele>
        <time>2000-01-01T03:59:47.000Z</time>
      </trkpt>
      <trkpt lat="44.93918" lon="4.85254">
        <ele>304.4</ele>
        <time>2000-01-01T03:59:57.000Z</time>
      </trkpt>
      <trkpt lat="44.93917" lon="4.85256">
        <ele>304.7</ele>
        <time>2000-01-01T04:00:07.000Z</time>
      </trkpt>
      <trkpt lat="44.93917" lon="4.85262">
        <ele>303.6</ele>
        <time>2000-01-01T04:00:17.000Z</time>
      </trkpt>
      <trkpt lat="44.93916" lon="4.85271">
        <ele>307</ele>
        <time>2000-01-01T04:00:27.000Z</time>
      </trkpt>
      <trkpt lat="44.93915" lon="4.85272">
        <ele>302.4</ele>
        <time>2000-01-01T04:00:37.000Z</time>
      </trkpt>
      <trkpt lat="44.93914" lon="4.85277">
        <ele>301.6</ele>
        <time>2000-01-01T04:00:47.000Z</time>
      </trkpt>
      <trkpt lat="44.93914" lon="4.8528">
        <ele>300.6</ele>
        <time>2000-01-01T04:00:57.000Z</time>
      </trkpt>
      <trkpt lat="44.93925" lon="4.85271">
        <ele>299</ele>
        <time>2000-01-01T04:01:07.000Z</time>
      </trkpt>
      <trkpt lat="44.93927" lon="4.85265">
        <ele>297.2</ele>
        <time>2000-01-01T04:01:17.000Z</time>
      </trkpt>
      <trkpt lat="44.93934" lon="4.85257">
        <ele>294</ele>
        <time>2000-01-01T04:01:27.000Z</time>
      </trkpt>
      <trkpt lat="44.93939" lon="4.85248">
        <ele>297</ele>
        <time>2000-01-01T04:01:37.000Z</time>
      </trkpt>
      <trkpt lat="44.93941" lon="4.85243">
        <ele>290.7</ele>
        <time>2000-01-01T04:01:47.000Z</time>
      </trkpt>
      <trkpt lat="44.93943" lon="4.85232">
        <ele>290.2</ele>
        <time>2000-01-01T04:01:57.000Z</time>
      </trkpt>
      <trkpt lat="44.93944" lon="4.85229">
        <ele>289.8</ele>
        <time>2000-01-01T04:02:07.000Z</time>
      </trkpt>
      <trkpt lat="44.93945" lon="4.85227">
        <ele>289.3</ele>
        <time>2000-01-01T04:02:17.000Z</time>
      </trkpt>
      <trkpt lat="44.93947" lon="4.85226">
        <ele>288.3</ele>
        <time>2000-01-01T04:02:27.000Z</time>
      </trkpt>
      <trkpt lat="44.93949" lon="4.85245">
        <ele>291</ele>
        <time>2000-01-01T04:02:37.000Z</time>
      </trkpt>
      <trkpt lat="44.93949" lon="4.85262">
        <ele>284.7</ele>
        <time>2000-01-01T04:02:47.000Z</time>
      </trkpt>
      <trkpt lat="44.93951" lon="4.85267">
        <ele>283.3</ele>
        <time>2000-01-01T04:02:57.000Z</time>
      </trkpt>
      <trkpt lat="44.93951" lon="4.85271">
        <ele>283.1</ele>
        <time>2000-01-01T04:03:07.000Z</time>
      </trkpt>
      <trkpt lat="44.93952" lon="4.85277">
        <ele>287</ele>
        <time>2000-01-01T04:03:17.000Z</time>
      </trkpt>
      <trkpt lat="44.93951" lon="4.85279">
        <ele>282.6</ele>
        <time>2000-01-01T04:03:27.000Z</time>
      </trkpt>
      <trkpt lat="44.93952" lon="4.85284">
        <ele>281.9</ele>
        <time>2000-01-01T04:03:37.000Z</time>
      </trkpt>
      <trkpt lat="44.93953" lon="4.85285">
        <ele>281.4</ele>
        <time>2000-01-01T04:03:47.000Z</time>
      </trkpt>
      <trkpt lat="44.93955" lon="4.85275">
        <ele>280.8</ele>
        <time>2000-01-01T04:03:57.000Z</time>
      </trkpt>
      <trkpt lat="44.93958" lon="4.85266">
        <ele>283</ele>
        <time>2000-01-01T04:04:07.000Z</time>
      </trkpt>
      <trkpt lat="44.93966" lon="4.85245">
        <ele>275.9</ele>
        <time>2000-01-01T04:04:17.000Z</time>
      </trkpt>
      <trkpt lat="44.93972" lon="4.85235">
        <ele>274</ele>
        <time>2000-01-01T04:04:27.000Z</time>
      </trkpt>
      <trkpt lat="44.93976" lon="4.85223">
        <ele>272</ele>
        <time>2000-01-01T04:04:37.000Z</time>
      </trkpt>
      <trkpt lat="44.93978" lon="4.85215">
        <ele>271</ele>
        <time>2000-01-01T04:04:47.000Z</time>
      </trkpt>
      <trkpt lat="44.93982" lon="4.85205">
        <ele>268</ele>
        <time>2000-01-01T04:04:57.000Z</time>
      </trkpt>
      <trkpt lat="44.93982" lon="4.85192">
        <ele>268.5</ele>
        <time>2000-01-01T04:05:07.000Z</time>
      </trkpt>
      <trkpt lat="44.93986" lon="4.85187">
        <ele>265.7</ele>
        <time>2000-01-01T04:05:17.000Z</time>
      </trkpt>
      <trkpt lat="44.93991" lon="4.85186">
        <ele>264</ele>
        <time>2000-01-01T04:05:27.000Z</time>
      </trkpt>
      <trkpt lat="44.93993" lon="4.85192">
        <ele>264.2</ele>
        <time>2000-01-01T04:05:37.000Z</time>
      </trkpt>
      <trkpt lat="44.93995" lon="4.85194">
        <ele>263.9</ele>
        <time>2000-01-01T04:05:47.000Z</time>
      </trkpt>
      <trkpt lat="44.93995" lon="4.85195">
        <ele>264</ele>
        <time>2000-01-01T04:05:57.000Z</time>
      </trkpt>
      <trkpt lat="44.93996" lon="4.85196">
        <ele>263.5</ele>
        <time>2000-01-01T04:06:07.000Z</time>
      </trkpt>
      <trkpt lat="44.93997" lon="4.85201">
        <ele>262.8</ele>
        <time>2000-01-01T04:06:17.000Z</time>
      </trkpt>
      <trkpt lat="44.94001" lon="4.85212">
        <ele>260</ele>
        <time>2000-01-01T04:06:27.000Z</time>
      </trkpt>
      <trkpt lat="44.94003" lon="4.85215">
        <ele>258.7</ele>
        <time>2000-01-01T04:06:37.000Z</time>
      </trkpt>
      <trkpt lat="44.94006" lon="4.85214">
        <ele>257</ele>
        <time>2000-01-01T04:06:47.000Z</time>
      </trkpt>
      <trkpt lat="44.94008" lon="4.85209">
        <ele>256.3</ele>
        <time>2000-01-01T04:06:57.000Z</time>
      </trkpt>
      <trkpt lat="44.9401" lon="4.852">
        <ele>256.1</ele>
        <time>2000-01-01T04:07:07.000Z</time>
      </trkpt>
      <trkpt lat="44.94012" lon="4.85195">
        <ele>255</ele>
        <time>2000-01-01T04:07:17.000Z</time>
      </trkpt>
      <trkpt lat="44.94014" lon="4.85184">
        <ele>252.8</ele>
        <time>2000-01-01T04:07:27.000Z</time>
      </trkpt>
      <trkpt lat="44.94014" lon="4.85179">
        <ele>251.9</ele>
        <time>2000-01-01T04:07:37.000Z</time>
      </trkpt>
      <trkpt lat="44.9401" lon="4.85157">
        <ele>251</ele>
        <time>2000-01-01T04:07:47.000Z</time>
      </trkpt>
      <trkpt lat="44.94007" lon="4.8515">
        <ele>248.8</ele>
        <time>2000-01-01T04:07:57.000Z</time>
      </trkpt>
      <trkpt lat="44.94001" lon="4.85142">
        <ele>248.6</ele>
        <time>2000-01-01T04:08:07.000Z</time>
      </trkpt>
      <trkpt lat="44.93998" lon="4.85137">
        <ele>248.2</ele>
        <time>2000-01-01T04:08:17.000Z</time>
      </trkpt>
      <trkpt lat="44.93994" lon="4.85133">
        <ele>249</ele>
        <time>2000-01-01T04:08:27.000Z</time>
      </trkpt>
      <trkpt lat="44.93989" lon="4.85124">
        <ele>248.8</ele>
        <time>2000-01-01T04:08:37.000Z</time>
      </trkpt>
      <trkpt lat="44.93989" lon="4.85116">
        <ele>247.9</ele>
        <time>2000-01-01T04:08:47.000Z</time>
      </trkpt>
      <trkpt lat="44.93991" lon="4.85112">
        <ele>247</ele>
        <time>2000-01-01T04:08:57.000Z</time>
      </trkpt>
      <trkpt lat="44.93997" lon="4.85105">
        <ele>248</ele>
        <time>2000-01-01T04:09:07.000Z</time>
      </trkpt>
      <trkpt lat="44.94001" lon="4.85099">
        <ele>246.9</ele>
        <time>2000-01-01T04:09:17.000Z</time>
      </trkpt>
      <trkpt lat="44.94008" lon="4.85093">
        <ele>246.1</ele>
        <time>2000-01-01T04:09:27.000Z</time>
      </trkpt>
      <trkpt lat="44.9402" lon="4.8509">
        <ele>247</ele>
        <time>2000-01-01T04:09:37.000Z</time>
      </trkpt>
      <trkpt lat="44.94038" lon="4.85077">
        <ele>245</ele>
        <time>2000-01-01T04:09:47.000Z</time>
      </trkpt>
      <trkpt lat="44.94047" lon="4.85068">
        <ele>240.9</ele>
        <time>2000-01-01T04:09:57.000Z</time>
      </trkpt>
      <trkpt lat="44.94054" lon="4.8506">
        <ele>243</ele>
        <time>2000-01-01T04:10:07.000Z</time>
      </trkpt>
      <trkpt lat="44.94063" lon="4.85047">
        <ele>240.9</ele>
        <time>2000-01-01T04:10:17.000Z</time>
      </trkpt>
      <trkpt lat="44.94076" lon="4.85034">
        <ele>240</ele>
        <time>2000-01-01T04:10:27.000Z</time>
      </trkpt>
      <trkpt lat="44.94078" lon="4.85032">
        <ele>238.5</ele>
        <time>2000-01-01T04:10:37.000Z</time>
      </trkpt>
      <trkpt lat="44.94091" lon="4.85031">
        <ele>235.8</ele>
        <time>2000-01-01T04:10:47.000Z</time>
      </trkpt>
      <trkpt lat="44.94088" lon="4.85037">
        <ele>240</ele>
        <time>2000-01-01T04:10:57.000Z</time>
      </trkpt>
      <trkpt lat="44.94084" lon="4.85042">
        <ele>236.4</ele>
        <time>2000-01-01T04:11:07.000Z</time>
      </trkpt>
      <trkpt lat="44.94082" lon="4.85044">
        <ele>236.7</ele>
        <time>2000-01-01T04:11:17.000Z</time>
      </trkpt>
      <trkpt lat="44.94077" lon="4.85047">
        <ele>237.7</ele>
        <time>2000-01-01T04:11:27.000Z</time>
      </trkpt>
      <trkpt lat="44.9407" lon="4.85054">
        <ele>239</ele>
        <time>2000-01-01T04:11:37.000Z</time>
      </trkpt>
      <trkpt lat="44.94055" lon="4.85071">
        <ele>239</ele>
        <time>2000-01-01T04:11:47.000Z</time>
      </trkpt>
      <trkpt lat="44.94051" lon="4.85079">
        <ele>237.9</ele>
        <time>2000-01-01T04:11:57.000Z</time>
      </trkpt>
      <trkpt lat="44.94048" lon="4.8509">
        <ele>236.5</ele>
        <time>2000-01-01T04:12:07.000Z</time>
      </trkpt>
      <trkpt lat="44.94048" lon="4.85092">
        <ele>236</ele>
        <time>2000-01-01T04:12:17.000Z</time>
      </trkpt>
      <trkpt lat="44.9405" lon="4.85095">
        <ele>236</ele>
        <time>2000-01-01T04:12:27.000Z</time>
      </trkpt>
      <trkpt lat="44.94061" lon="4.85101">
        <ele>231.3</ele>
        <time>2000-01-01T04:12:37.000Z</time>
      </trkpt>
      <trkpt lat="44.9407" lon="4.8511">
        <ele>233</ele>
        <time>2000-01-01T04:12:47.000Z</time>
      </trkpt>
      <trkpt lat="44.94077" lon="4.85114">
        <ele>226.7</ele>
        <time>2000-01-01T04:12:57.000Z</time>
      </trkpt>
      <trkpt lat="44.94083" lon="4.85115">
        <ele>225.6</ele>
        <time>2000-01-01T04:13:07.000Z</time>
      </trkpt>
      <trkpt lat="44.94084" lon="4.85112">
        <ele>225.9</ele>
        <time>2000-01-01T04:13:17.000Z</time>
      </trkpt>
      <trkpt lat="44.94084" lon="4.85112">
        <ele>226</ele>
        <time>2000-01-01T04:13:27.000Z</time>
      </trkpt>
    </trkseg>
  </trk>
</gpx>